<?xml version="1.0" encoding="UTF-8" standalone="no" ?>
<gpx xmlns="http://www.topografix.com/GPX/1/1" xmlns:xsi="http://www.w3.org/2001/XMLSchema-instance" xsi:schemaLocation="http://www.topografix.com/GPX/1/1 http://www.topografix.com/GPX/1/1/gpx.xsd" version="1.1" creator="VisuGPX - https://www.visugpx.com">
  <metadata>
    <name>Bois de la Mourachonne, boucle au départ de Pégomas</name>
    <desc><![CDATA[Les meilleurs sentiers périurbains entre Pégomas et Mouans-Sartoux.]]></desc>
  </metadata>
  <wpt lat="43.60079" lon="6.94312">
    <ele>139.578125</ele>
    <name><![CDATA[1]]></name>
    <desc><![CDATA[Chemin]]></desc>
    <cmt><![CDATA[Chemin]]></cmt>
  </wpt>
  <wpt lat="43.61229" lon="6.9366">
    <ele>109.8867188</ele>
    <name><![CDATA[2]]></name>
    <desc><![CDATA[Route]]></desc>
    <cmt><![CDATA[Route]]></cmt>
  </wpt>
  <wpt lat="43.61951" lon="6.94084">
    <ele>116.1992188</ele>
    <name><![CDATA[3]]></name>
    <desc><![CDATA[Chemin]]></desc>
    <cmt><![CDATA[Chemin]]></cmt>
  </wpt>
  <wpt lat="43.61937" lon="6.9371">
    <ele>145.8398438</ele>
    <name><![CDATA[4]]></name>
    <desc><![CDATA[Chemin]]></desc>
    <cmt><![CDATA[Chemin]]></cmt>
  </wpt>
  <wpt lat="43.61748" lon="6.94093">
    <ele>135.8828125</ele>
    <name><![CDATA[5]]></name>
    <desc><![CDATA[Chemin]]></desc>
    <cmt><![CDATA[Chemin]]></cmt>
  </wpt>
  <wpt lat="43.61308" lon="6.94111">
    <ele>119.7773438</ele>
    <name><![CDATA[6]]></name>
    <desc><![CDATA[Ruines]]></desc>
    <cmt><![CDATA[Ruines]]></cmt>
  </wpt>
  <wpt lat="43.60427" lon="6.94102">
    <ele>121.6640625</ele>
    <name><![CDATA[7]]></name>
    <desc><![CDATA[Chemin]]></desc>
    <cmt><![CDATA[Chemin]]></cmt>
  </wpt>
  <wpt lat="43.5938" lon="6.93762">
    <ele>56.2929688</ele>
    <name><![CDATA[8]]></name>
    <desc><![CDATA[Route]]></desc>
    <cmt><![CDATA[Route]]></cmt>
  </wpt>
  <trk>
    <name><![CDATA[Tracé]]></name>
    <trkseg>
      <trkpt lat="43.59253" lon="6.93057">
        <ele>7.8278809</ele>
        <time>2011-04-19T11:37:02Z</time>
      </trkpt>
      <trkpt lat="43.59188" lon="6.93147">
        <ele>8.3085938</ele>
        <time>2011-04-19T11:37:22Z</time>
      </trkpt>
      <trkpt lat="43.59141" lon="6.93269">
        <ele>9.7506104</ele>
        <time>2011-04-19T11:37:44Z</time>
      </trkpt>
      <trkpt lat="43.59082" lon="6.93371">
        <ele>6.3858643</ele>
        <time>2011-04-19T11:38:05Z</time>
      </trkpt>
      <trkpt lat="43.59074" lon="6.93385">
        <ele>7.8278809</ele>
        <time>2011-04-19T11:38:08Z</time>
      </trkpt>
      <trkpt lat="43.59045" lon="6.93441">
        <ele>6.8664551</ele>
        <time>2011-04-19T11:38:20Z</time>
      </trkpt>
      <trkpt lat="43.59054" lon="6.9346">
        <ele>8.7891846</ele>
        <time>2011-04-19T11:39:55Z</time>
      </trkpt>
      <trkpt lat="43.59072" lon="6.93492">
        <ele>11.6732178</ele>
        <time>2011-04-19T11:40:06Z</time>
      </trkpt>
      <trkpt lat="43.59102" lon="6.93499">
        <ele>15.5184326</ele>
        <time>2011-04-19T11:40:19Z</time>
      </trkpt>
      <trkpt lat="43.5912" lon="6.935">
        <ele>15.5184326</ele>
        <time>2011-04-19T11:40:26Z</time>
      </trkpt>
      <trkpt lat="43.59122" lon="6.935">
        <ele>15.5184326</ele>
        <time>2011-04-19T11:40:41Z</time>
      </trkpt>
      <trkpt lat="43.59144" lon="6.93503">
        <ele>15.9990234</ele>
        <time>2011-04-19T11:40:53Z</time>
      </trkpt>
      <trkpt lat="43.59177" lon="6.93529">
        <ele>16.9604492</ele>
        <time>2011-04-19T11:41:06Z</time>
      </trkpt>
      <trkpt lat="43.59194" lon="6.93587">
        <ele>18.4023438</ele>
        <time>2011-04-19T11:41:22Z</time>
      </trkpt>
      <trkpt lat="43.59195" lon="6.9362">
        <ele>21.7669678</ele>
        <time>2011-04-19T11:41:33Z</time>
      </trkpt>
      <trkpt lat="43.59194" lon="6.93673">
        <ele>24.651001</ele>
        <time>2011-04-19T11:41:50Z</time>
      </trkpt>
      <trkpt lat="43.59191" lon="6.93752">
        <ele>27.0543213</ele>
        <time>2011-04-19T11:42:14Z</time>
      </trkpt>
      <trkpt lat="43.5919" lon="6.93792">
        <ele>29.9381104</ele>
        <time>2011-04-19T11:42:26Z</time>
      </trkpt>
      <trkpt lat="43.59189" lon="6.93821">
        <ele>33.3028564</ele>
        <time>2011-04-19T11:42:38Z</time>
      </trkpt>
      <trkpt lat="43.59186" lon="6.93834">
        <ele>34.744873</ele>
        <time>2011-04-19T11:42:44Z</time>
      </trkpt>
      <trkpt lat="43.59184" lon="6.93842">
        <ele>36.6674805</ele>
        <time>2011-04-19T11:42:51Z</time>
      </trkpt>
      <trkpt lat="43.59184" lon="6.93842">
        <ele>37.1480713</ele>
        <time>2011-04-19T11:42:55Z</time>
      </trkpt>
      <trkpt lat="43.59172" lon="6.93877">
        <ele>40.5128174</ele>
        <time>2011-04-19T11:43:08Z</time>
      </trkpt>
      <trkpt lat="43.59166" lon="6.93892">
        <ele>43.3966064</ele>
        <time>2011-04-19T11:43:16Z</time>
      </trkpt>
      <trkpt lat="43.59159" lon="6.93916">
        <ele>46.7612305</ele>
        <time>2011-04-19T11:43:30Z</time>
      </trkpt>
      <trkpt lat="43.59158" lon="6.93924">
        <ele>47.7225342</ele>
        <time>2011-04-19T11:43:36Z</time>
      </trkpt>
      <trkpt lat="43.59191" lon="6.93966">
        <ele>49.6452637</ele>
        <time>2011-04-19T11:44:00Z</time>
      </trkpt>
      <trkpt lat="43.59199" lon="6.93977">
        <ele>52.048584</ele>
        <time>2011-04-19T11:44:07Z</time>
      </trkpt>
      <trkpt lat="43.59219" lon="6.94021">
        <ele>53.9711914</ele>
        <time>2011-04-19T11:44:30Z</time>
      </trkpt>
      <trkpt lat="43.59232" lon="6.94054">
        <ele>57.3358154</ele>
        <time>2011-04-19T11:44:46Z</time>
      </trkpt>
      <trkpt lat="43.59254" lon="6.94111">
        <ele>59.2584229</ele>
        <time>2011-04-19T11:45:13Z</time>
      </trkpt>
      <trkpt lat="43.59262" lon="6.94197">
        <ele>61.6617432</ele>
        <time>2011-04-19T11:45:39Z</time>
      </trkpt>
      <trkpt lat="43.59281" lon="6.9422">
        <ele>64.5456543</ele>
        <time>2011-04-19T11:45:53Z</time>
      </trkpt>
      <trkpt lat="43.59319" lon="6.942">
        <ele>66.4682617</ele>
        <time>2011-04-19T11:45:59Z</time>
      </trkpt>
      <trkpt lat="43.59321" lon="6.94205">
        <ele>67.4296875</ele>
        <time>2011-04-19T11:46:03Z</time>
      </trkpt>
      <trkpt lat="43.59324" lon="6.94212">
        <ele>69.8328857</ele>
        <time>2011-04-19T11:46:08Z</time>
      </trkpt>
      <trkpt lat="43.59328" lon="6.94222">
        <ele>71.2749023</ele>
        <time>2011-04-19T11:46:15Z</time>
      </trkpt>
      <trkpt lat="43.59335" lon="6.94235">
        <ele>78.4847412</ele>
        <time>2011-04-19T11:46:42Z</time>
      </trkpt>
      <trkpt lat="43.59339" lon="6.9424">
        <ele>78.4847412</ele>
        <time>2011-04-19T11:46:45Z</time>
      </trkpt>
      <trkpt lat="43.59324" lon="6.94277">
        <ele>82.810791</ele>
        <time>2011-04-19T11:47:00Z</time>
      </trkpt>
      <trkpt lat="43.59328" lon="6.94275">
        <ele>83.7719727</ele>
        <time>2011-04-19T11:47:03Z</time>
      </trkpt>
      <trkpt lat="43.59334" lon="6.94277">
        <ele>85.6945801</ele>
        <time>2011-04-19T11:47:08Z</time>
      </trkpt>
      <trkpt lat="43.59336" lon="6.94303">
        <ele>87.6171875</ele>
        <time>2011-04-19T11:47:25Z</time>
      </trkpt>
      <trkpt lat="43.59335" lon="6.94309">
        <ele>90.0206299</ele>
        <time>2011-04-19T11:47:29Z</time>
      </trkpt>
      <trkpt lat="43.59334" lon="6.94317">
        <ele>90.5013428</ele>
        <time>2011-04-19T11:47:33Z</time>
      </trkpt>
      <trkpt lat="43.59332" lon="6.94329">
        <ele>93.3851318</ele>
        <time>2011-04-19T11:47:41Z</time>
      </trkpt>
      <trkpt lat="43.59333" lon="6.94335">
        <ele>94.3465576</ele>
        <time>2011-04-19T11:47:45Z</time>
      </trkpt>
      <trkpt lat="43.59335" lon="6.94343">
        <ele>96.2692871</ele>
        <time>2011-04-19T11:47:51Z</time>
      </trkpt>
      <trkpt lat="43.59352" lon="6.94342">
        <ele>99.1530762</ele>
        <time>2011-04-19T11:48:06Z</time>
      </trkpt>
      <trkpt lat="43.59362" lon="6.94327">
        <ele>102.0371094</ele>
        <time>2011-04-19T11:48:20Z</time>
      </trkpt>
      <trkpt lat="43.59364" lon="6.94324">
        <ele>102.5177002</ele>
        <time>2011-04-19T11:48:23Z</time>
      </trkpt>
      <trkpt lat="43.59368" lon="6.94322">
        <ele>103.4790039</ele>
        <time>2011-04-19T11:48:28Z</time>
      </trkpt>
      <trkpt lat="43.59373" lon="6.94327">
        <ele>104.9210205</ele>
        <time>2011-04-19T11:48:33Z</time>
      </trkpt>
      <trkpt lat="43.59375" lon="6.94336">
        <ele>107.3243408</ele>
        <time>2011-04-19T11:48:40Z</time>
      </trkpt>
      <trkpt lat="43.59375" lon="6.94337">
        <ele>106.8436279</ele>
        <time>2011-04-19T11:48:41Z</time>
      </trkpt>
      <trkpt lat="43.59377" lon="6.94342">
        <ele>107.3243408</ele>
        <time>2011-04-19T11:48:44Z</time>
      </trkpt>
      <trkpt lat="43.59383" lon="6.94342">
        <ele>108.7662354</ele>
        <time>2011-04-19T11:48:49Z</time>
      </trkpt>
      <trkpt lat="43.59383" lon="6.94301">
        <ele>110.6888428</ele>
        <time>2011-04-19T11:49:12Z</time>
      </trkpt>
      <trkpt lat="43.59367" lon="6.94225">
        <ele>108.2856445</ele>
        <time>2011-04-19T11:49:31Z</time>
      </trkpt>
      <trkpt lat="43.59353" lon="6.94159">
        <ele>109.7276611</ele>
        <time>2011-04-19T11:49:48Z</time>
      </trkpt>
      <trkpt lat="43.59353" lon="6.94142">
        <ele>111.1695557</ele>
        <time>2011-04-19T11:49:55Z</time>
      </trkpt>
      <trkpt lat="43.59351" lon="6.94136">
        <ele>112.1309814</ele>
        <time>2011-04-19T11:49:58Z</time>
      </trkpt>
      <trkpt lat="43.59352" lon="6.94124">
        <ele>110.6888428</ele>
        <time>2011-04-19T11:50:03Z</time>
      </trkpt>
      <trkpt lat="43.5936" lon="6.9413">
        <ele>111.6502686</ele>
        <time>2011-04-19T11:50:11Z</time>
      </trkpt>
      <trkpt lat="43.59361" lon="6.94142">
        <ele>113.0922852</ele>
        <time>2011-04-19T11:50:17Z</time>
      </trkpt>
      <trkpt lat="43.59372" lon="6.9416">
        <ele>117.4182129</ele>
        <time>2011-04-19T11:50:29Z</time>
      </trkpt>
      <trkpt lat="43.59379" lon="6.94178">
        <ele>119.3408203</ele>
        <time>2011-04-19T11:50:39Z</time>
      </trkpt>
      <trkpt lat="43.59385" lon="6.94192">
        <ele>122.7054443</ele>
        <time>2011-04-19T11:50:54Z</time>
      </trkpt>
      <trkpt lat="43.59391" lon="6.94203">
        <ele>124.1473389</ele>
        <time>2011-04-19T11:51:08Z</time>
      </trkpt>
      <trkpt lat="43.59401" lon="6.94217">
        <ele>124.6280518</ele>
        <time>2011-04-19T11:51:18Z</time>
      </trkpt>
      <trkpt lat="43.5942" lon="6.94287">
        <ele>125.1087646</ele>
        <time>2011-04-19T11:51:40Z</time>
      </trkpt>
      <trkpt lat="43.59425" lon="6.94357">
        <ele>126.0699463</ele>
        <time>2011-04-19T11:51:58Z</time>
      </trkpt>
      <trkpt lat="43.5943" lon="6.94398">
        <ele>128.9541016</ele>
        <time>2011-04-19T11:52:10Z</time>
      </trkpt>
      <trkpt lat="43.59434" lon="6.94422">
        <ele>130.3959961</ele>
        <time>2011-04-19T11:52:18Z</time>
      </trkpt>
      <trkpt lat="43.59437" lon="6.94425">
        <ele>130.3959961</ele>
        <time>2011-04-19T11:52:20Z</time>
      </trkpt>
      <trkpt lat="43.59444" lon="6.94425">
        <ele>131.8378906</ele>
        <time>2011-04-19T11:52:24Z</time>
      </trkpt>
      <trkpt lat="43.59448" lon="6.94424">
        <ele>133.2799072</ele>
        <time>2011-04-19T11:52:27Z</time>
      </trkpt>
      <trkpt lat="43.59457" lon="6.944">
        <ele>136.1639404</ele>
        <time>2011-04-19T11:52:39Z</time>
      </trkpt>
      <trkpt lat="43.59462" lon="6.94396">
        <ele>136.6446533</ele>
        <time>2011-04-19T11:52:43Z</time>
      </trkpt>
      <trkpt lat="43.59505" lon="6.94382">
        <ele>138.0865479</ele>
        <time>2011-04-19T11:53:02Z</time>
      </trkpt>
      <trkpt lat="43.59525" lon="6.94376">
        <ele>138.5672607</ele>
        <time>2011-04-19T11:53:10Z</time>
      </trkpt>
      <trkpt lat="43.5955" lon="6.94352">
        <ele>139.0478516</ele>
        <time>2011-04-19T11:53:23Z</time>
      </trkpt>
      <trkpt lat="43.59562" lon="6.94346">
        <ele>141.4510498</ele>
        <time>2011-04-19T11:53:31Z</time>
      </trkpt>
      <trkpt lat="43.59576" lon="6.94338">
        <ele>144.8157959</ele>
        <time>2011-04-19T11:53:42Z</time>
      </trkpt>
      <trkpt lat="43.59587" lon="6.94331">
        <ele>145.7770996</ele>
        <time>2011-04-19T11:53:50Z</time>
      </trkpt>
      <trkpt lat="43.5959" lon="6.94332">
        <ele>147.2189941</ele>
        <time>2011-04-19T11:53:52Z</time>
      </trkpt>
      <trkpt lat="43.59607" lon="6.94329">
        <ele>150.1030273</ele>
        <time>2011-04-19T11:54:04Z</time>
      </trkpt>
      <trkpt lat="43.59614" lon="6.94336">
        <ele>151.064209</ele>
        <time>2011-04-19T11:54:10Z</time>
      </trkpt>
      <trkpt lat="43.59614" lon="6.94344">
        <ele>152.9869385</ele>
        <time>2011-04-19T11:54:14Z</time>
      </trkpt>
      <trkpt lat="43.59615" lon="6.94349">
        <ele>152.9869385</ele>
        <time>2011-04-19T11:54:17Z</time>
      </trkpt>
      <trkpt lat="43.59622" lon="6.94387">
        <ele>156.8321533</ele>
        <time>2011-04-19T11:54:40Z</time>
      </trkpt>
      <trkpt lat="43.59631" lon="6.94394">
        <ele>157.3128662</ele>
        <time>2011-04-19T11:54:58Z</time>
      </trkpt>
      <trkpt lat="43.59631" lon="6.94394">
        <ele>157.3128662</ele>
        <time>2011-04-19T11:55:25Z</time>
      </trkpt>
      <trkpt lat="43.5967" lon="6.9439">
        <ele>156.8321533</ele>
        <time>2011-04-19T11:55:45Z</time>
      </trkpt>
      <trkpt lat="43.59676" lon="6.9439">
        <ele>155.8709717</ele>
        <time>2011-04-19T11:55:47Z</time>
      </trkpt>
      <trkpt lat="43.59707" lon="6.94411">
        <ele>152.9869385</ele>
        <time>2011-04-19T11:55:56Z</time>
      </trkpt>
      <trkpt lat="43.5973" lon="6.94424">
        <ele>150.5836182</ele>
        <time>2011-04-19T11:56:00Z</time>
      </trkpt>
      <trkpt lat="43.59756" lon="6.94437">
        <ele>149.6223145</ele>
        <time>2011-04-19T11:56:04Z</time>
      </trkpt>
      <trkpt lat="43.59774" lon="6.94434">
        <ele>148.6610107</ele>
        <time>2011-04-19T11:56:08Z</time>
      </trkpt>
      <trkpt lat="43.59777" lon="6.94432">
        <ele>149.1416016</ele>
        <time>2011-04-19T11:56:10Z</time>
      </trkpt>
      <trkpt lat="43.59782" lon="6.94428">
        <ele>147.699707</ele>
        <time>2011-04-19T11:56:12Z</time>
      </trkpt>
      <trkpt lat="43.59774" lon="6.94512">
        <ele>140.970459</ele>
        <time>2011-04-19T11:56:19Z</time>
      </trkpt>
      <trkpt lat="43.59774" lon="6.94512">
        <ele>140.970459</ele>
        <time>2011-04-19T11:56:20Z</time>
      </trkpt>
      <trkpt lat="43.59842" lon="6.94498">
        <ele>139.5284424</ele>
        <time>2011-04-19T11:56:27Z</time>
      </trkpt>
      <trkpt lat="43.59851" lon="6.94507">
        <ele>137.605835</ele>
        <time>2011-04-19T11:56:30Z</time>
      </trkpt>
      <trkpt lat="43.59859" lon="6.94517">
        <ele>136.6446533</ele>
        <time>2011-04-19T11:56:34Z</time>
      </trkpt>
      <trkpt lat="43.59871" lon="6.94531">
        <ele>134.2412109</ele>
        <time>2011-04-19T11:56:39Z</time>
      </trkpt>
      <trkpt lat="43.59882" lon="6.9454">
        <ele>133.760498</ele>
        <time>2011-04-19T11:56:43Z</time>
      </trkpt>
      <trkpt lat="43.59881" lon="6.94549">
        <ele>133.2799072</ele>
        <time>2011-04-19T11:56:48Z</time>
      </trkpt>
      <trkpt lat="43.59877" lon="6.94544">
        <ele>133.760498</ele>
        <time>2011-04-19T11:56:51Z</time>
      </trkpt>
      <trkpt lat="43.59856" lon="6.94517">
        <ele>136.6446533</ele>
        <time>2011-04-19T11:57:07Z</time>
      </trkpt>
      <trkpt lat="43.59839" lon="6.94494">
        <ele>138.5672607</ele>
        <time>2011-04-19T11:57:21Z</time>
      </trkpt>
      <trkpt lat="43.5983" lon="6.94479">
        <ele>139.5284424</ele>
        <time>2011-04-19T11:57:30Z</time>
      </trkpt>
      <trkpt lat="43.59827" lon="6.94474">
        <ele>140.970459</ele>
        <time>2011-04-19T11:57:33Z</time>
      </trkpt>
      <trkpt lat="43.59812" lon="6.94455">
        <ele>143.8543701</ele>
        <time>2011-04-19T11:57:45Z</time>
      </trkpt>
      <trkpt lat="43.59802" lon="6.94448">
        <ele>145.2963867</ele>
        <time>2011-04-19T11:57:51Z</time>
      </trkpt>
      <trkpt lat="43.598" lon="6.94449">
        <ele>146.2578125</ele>
        <time>2011-04-19T11:57:53Z</time>
      </trkpt>
      <trkpt lat="43.59784" lon="6.94438">
        <ele>147.2189941</ele>
        <time>2011-04-19T11:58:05Z</time>
      </trkpt>
      <trkpt lat="43.59787" lon="6.94439">
        <ele>146.7384033</ele>
        <time>2011-04-19T11:58:12Z</time>
      </trkpt>
      <trkpt lat="43.59773" lon="6.94511">
        <ele>145.2963867</ele>
        <time>2011-04-19T11:58:18Z</time>
      </trkpt>
      <trkpt lat="43.59774" lon="6.94512">
        <ele>143.3736572</ele>
        <time>2011-04-19T11:58:20Z</time>
      </trkpt>
      <trkpt lat="43.59774" lon="6.94512">
        <ele>140.970459</ele>
        <time>2011-04-19T11:58:21Z</time>
      </trkpt>
      <trkpt lat="43.59774" lon="6.94512">
        <ele>139.5284424</ele>
        <time>2011-04-19T11:58:25Z</time>
      </trkpt>
      <trkpt lat="43.5985" lon="6.94509">
        <ele>137.605835</ele>
        <time>2011-04-19T11:58:31Z</time>
      </trkpt>
      <trkpt lat="43.59862" lon="6.94517">
        <ele>135.2025146</ele>
        <time>2011-04-19T11:58:34Z</time>
      </trkpt>
      <trkpt lat="43.59874" lon="6.94528">
        <ele>134.7219238</ele>
        <time>2011-04-19T11:58:37Z</time>
      </trkpt>
      <trkpt lat="43.5989" lon="6.94537">
        <ele>133.2799072</ele>
        <time>2011-04-19T11:58:41Z</time>
      </trkpt>
      <trkpt lat="43.59891" lon="6.94541">
        <ele>133.2799072</ele>
        <time>2011-04-19T11:58:42Z</time>
      </trkpt>
      <trkpt lat="43.59889" lon="6.94548">
        <ele>132.7993164</ele>
        <time>2011-04-19T11:58:44Z</time>
      </trkpt>
      <trkpt lat="43.599" lon="6.94548">
        <ele>132.7993164</ele>
        <time>2011-04-19T11:58:53Z</time>
      </trkpt>
      <trkpt lat="43.59925" lon="6.9455">
        <ele>133.760498</ele>
        <time>2011-04-19T11:59:07Z</time>
      </trkpt>
      <trkpt lat="43.59939" lon="6.94522">
        <ele>135.6831055</ele>
        <time>2011-04-19T11:59:20Z</time>
      </trkpt>
      <trkpt lat="43.5994" lon="6.94521">
        <ele>135.6831055</ele>
        <time>2011-04-19T11:59:21Z</time>
      </trkpt>
      <trkpt lat="43.59957" lon="6.94494">
        <ele>138.0865479</ele>
        <time>2011-04-19T11:59:33Z</time>
      </trkpt>
      <trkpt lat="43.59972" lon="6.94464">
        <ele>140.4898682</ele>
        <time>2011-04-19T11:59:46Z</time>
      </trkpt>
      <trkpt lat="43.60011" lon="6.94474">
        <ele>141.4510498</ele>
        <time>2011-04-19T12:00:04Z</time>
      </trkpt>
      <trkpt lat="43.60042" lon="6.94455">
        <ele>141.4510498</ele>
        <time>2011-04-19T12:00:17Z</time>
      </trkpt>
      <trkpt lat="43.60053" lon="6.94431">
        <ele>139.5284424</ele>
        <time>2011-04-19T12:00:22Z</time>
      </trkpt>
      <trkpt lat="43.60058" lon="6.94417">
        <ele>138.0865479</ele>
        <time>2011-04-19T12:00:24Z</time>
      </trkpt>
      <trkpt lat="43.60059" lon="6.94399">
        <ele>136.6446533</ele>
        <time>2011-04-19T12:00:27Z</time>
      </trkpt>
      <trkpt lat="43.60067" lon="6.94359">
        <ele>134.7219238</ele>
        <time>2011-04-19T12:00:31Z</time>
      </trkpt>
      <trkpt lat="43.60073" lon="6.94333">
        <ele>132.7993164</ele>
        <time>2011-04-19T12:00:34Z</time>
      </trkpt>
      <trkpt lat="43.60088" lon="6.94303">
        <ele>130.876709</ele>
        <time>2011-04-19T12:00:38Z</time>
      </trkpt>
      <trkpt lat="43.60092" lon="6.94299">
        <ele>129.4346924</ele>
        <time>2011-04-19T12:00:39Z</time>
      </trkpt>
      <trkpt lat="43.60109" lon="6.94281">
        <ele>127.5119629</ele>
        <time>2011-04-19T12:00:43Z</time>
      </trkpt>
      <trkpt lat="43.60118" lon="6.94272">
        <ele>126.5506592</ele>
        <time>2011-04-19T12:00:45Z</time>
      </trkpt>
      <trkpt lat="43.60127" lon="6.94261">
        <ele>126.0699463</ele>
        <time>2011-04-19T12:00:48Z</time>
      </trkpt>
      <trkpt lat="43.60139" lon="6.94244">
        <ele>126.5506592</ele>
        <time>2011-04-19T12:00:52Z</time>
      </trkpt>
      <trkpt lat="43.60162" lon="6.94209">
        <ele>127.0313721</ele>
        <time>2011-04-19T12:00:58Z</time>
      </trkpt>
      <trkpt lat="43.60198" lon="6.94161">
        <ele>127.0313721</ele>
        <time>2011-04-19T12:01:06Z</time>
      </trkpt>
      <trkpt lat="43.60224" lon="6.94128">
        <ele>127.0313721</ele>
        <time>2011-04-19T12:01:12Z</time>
      </trkpt>
      <trkpt lat="43.60208" lon="6.94102">
        <ele>126.0699463</ele>
        <time>2011-04-19T12:01:18Z</time>
      </trkpt>
      <trkpt lat="43.60184" lon="6.94102">
        <ele>123.1861572</ele>
        <time>2011-04-19T12:01:25Z</time>
      </trkpt>
      <trkpt lat="43.60166" lon="6.94095">
        <ele>121.7441406</ele>
        <time>2011-04-19T12:01:29Z</time>
      </trkpt>
      <trkpt lat="43.6017" lon="6.94074">
        <ele>120.302124</ele>
        <time>2011-04-19T12:01:32Z</time>
      </trkpt>
      <trkpt lat="43.60181" lon="6.94057">
        <ele>119.3408203</ele>
        <time>2011-04-19T12:01:36Z</time>
      </trkpt>
      <trkpt lat="43.60187" lon="6.94048">
        <ele>117.4182129</ele>
        <time>2011-04-19T12:01:38Z</time>
      </trkpt>
      <trkpt lat="43.6019" lon="6.94045">
        <ele>115.9761963</ele>
        <time>2011-04-19T12:01:39Z</time>
      </trkpt>
      <trkpt lat="43.60206" lon="6.9402">
        <ele>113.0922852</ele>
        <time>2011-04-19T12:01:46Z</time>
      </trkpt>
      <trkpt lat="43.60206" lon="6.94012">
        <ele>112.6115723</ele>
        <time>2011-04-19T12:01:48Z</time>
      </trkpt>
      <trkpt lat="43.60205" lon="6.94003">
        <ele>110.208252</ele>
        <time>2011-04-19T12:01:50Z</time>
      </trkpt>
      <trkpt lat="43.60201" lon="6.93983">
        <ele>106.3630371</ele>
        <time>2011-04-19T12:01:55Z</time>
      </trkpt>
      <trkpt lat="43.60233" lon="6.93999">
        <ele>106.3630371</ele>
        <time>2011-04-19T12:01:56Z</time>
      </trkpt>
      <trkpt lat="43.60194" lon="6.93967">
        <ele>104.9210205</ele>
        <time>2011-04-19T12:01:58Z</time>
      </trkpt>
      <trkpt lat="43.60192" lon="6.93963">
        <ele>104.9210205</ele>
        <time>2011-04-19T12:01:59Z</time>
      </trkpt>
      <trkpt lat="43.60185" lon="6.93954">
        <ele>103.9597168</ele>
        <time>2011-04-19T12:02:01Z</time>
      </trkpt>
      <trkpt lat="43.60182" lon="6.93935">
        <ele>100.5950928</ele>
        <time>2011-04-19T12:02:05Z</time>
      </trkpt>
      <trkpt lat="43.60194" lon="6.93933">
        <ele>99.6337891</ele>
        <time>2011-04-19T12:02:10Z</time>
      </trkpt>
      <trkpt lat="43.60199" lon="6.93938">
        <ele>100.5950928</ele>
        <time>2011-04-19T12:02:13Z</time>
      </trkpt>
      <trkpt lat="43.60198" lon="6.93947">
        <ele>102.5177002</ele>
        <time>2011-04-19T12:02:17Z</time>
      </trkpt>
      <trkpt lat="43.60195" lon="6.93953">
        <ele>103.9597168</ele>
        <time>2011-04-19T12:02:20Z</time>
      </trkpt>
      <trkpt lat="43.60195" lon="6.9396">
        <ele>104.9210205</ele>
        <time>2011-04-19T12:02:24Z</time>
      </trkpt>
      <trkpt lat="43.602" lon="6.93993">
        <ele>108.2856445</ele>
        <time>2011-04-19T12:02:41Z</time>
      </trkpt>
      <trkpt lat="43.60201" lon="6.93995">
        <ele>108.2856445</ele>
        <time>2011-04-19T12:02:42Z</time>
      </trkpt>
      <trkpt lat="43.60203" lon="6.93996">
        <ele>109.7276611</ele>
        <time>2011-04-19T12:02:44Z</time>
      </trkpt>
      <trkpt lat="43.60207" lon="6.93996">
        <ele>110.208252</ele>
        <time>2011-04-19T12:02:58Z</time>
      </trkpt>
      <trkpt lat="43.60211" lon="6.93997">
        <ele>110.208252</ele>
        <time>2011-04-19T12:03:02Z</time>
      </trkpt>
      <trkpt lat="43.60215" lon="6.93996">
        <ele>111.1695557</ele>
        <time>2011-04-19T12:03:05Z</time>
      </trkpt>
      <trkpt lat="43.60226" lon="6.94003">
        <ele>112.6115723</ele>
        <time>2011-04-19T12:03:14Z</time>
      </trkpt>
      <trkpt lat="43.60229" lon="6.94007">
        <ele>113.0922852</ele>
        <time>2011-04-19T12:03:18Z</time>
      </trkpt>
      <trkpt lat="43.60235" lon="6.9401">
        <ele>113.0922852</ele>
        <time>2011-04-19T12:03:22Z</time>
      </trkpt>
      <trkpt lat="43.6024" lon="6.94008">
        <ele>113.572998</ele>
        <time>2011-04-19T12:03:26Z</time>
      </trkpt>
      <trkpt lat="43.60257" lon="6.94007">
        <ele>115.4956055</ele>
        <time>2011-04-19T12:03:36Z</time>
      </trkpt>
      <trkpt lat="43.60264" lon="6.94005">
        <ele>115.0148926</ele>
        <time>2011-04-19T12:03:40Z</time>
      </trkpt>
      <trkpt lat="43.60285" lon="6.93999">
        <ele>116.4567871</ele>
        <time>2011-04-19T12:03:51Z</time>
      </trkpt>
      <trkpt lat="43.60292" lon="6.94008">
        <ele>117.8988037</ele>
        <time>2011-04-19T12:03:59Z</time>
      </trkpt>
      <trkpt lat="43.60295" lon="6.94005">
        <ele>116.9375</ele>
        <time>2011-04-19T12:04:01Z</time>
      </trkpt>
      <trkpt lat="43.60301" lon="6.93994">
        <ele>116.4567871</ele>
        <time>2011-04-19T12:04:05Z</time>
      </trkpt>
      <trkpt lat="43.60301" lon="6.93986">
        <ele>115.4956055</ele>
        <time>2011-04-19T12:04:07Z</time>
      </trkpt>
      <trkpt lat="43.60307" lon="6.93971">
        <ele>114.0535889</ele>
        <time>2011-04-19T12:04:11Z</time>
      </trkpt>
      <trkpt lat="43.60339" lon="6.93966">
        <ele>112.6115723</ele>
        <time>2011-04-19T12:04:16Z</time>
      </trkpt>
      <trkpt lat="43.6034" lon="6.93971">
        <ele>114.0535889</ele>
        <time>2011-04-19T12:04:18Z</time>
      </trkpt>
      <trkpt lat="43.60343" lon="6.93979">
        <ele>111.6502686</ele>
        <time>2011-04-19T12:04:20Z</time>
      </trkpt>
      <trkpt lat="43.60344" lon="6.93986">
        <ele>112.6115723</ele>
        <time>2011-04-19T12:04:22Z</time>
      </trkpt>
      <trkpt lat="43.60345" lon="6.93988">
        <ele>114.5341797</ele>
        <time>2011-04-19T12:04:28Z</time>
      </trkpt>
      <trkpt lat="43.60345" lon="6.93987">
        <ele>114.5341797</ele>
        <time>2011-04-19T12:04:30Z</time>
      </trkpt>
      <trkpt lat="43.60343" lon="6.9398">
        <ele>115.4956055</ele>
        <time>2011-04-19T12:04:39Z</time>
      </trkpt>
      <trkpt lat="43.60295" lon="6.94004">
        <ele>117.4182129</ele>
        <time>2011-04-19T12:04:44Z</time>
      </trkpt>
      <trkpt lat="43.60306" lon="6.94013">
        <ele>115.9761963</ele>
        <time>2011-04-19T12:04:51Z</time>
      </trkpt>
      <trkpt lat="43.60308" lon="6.94018">
        <ele>115.9761963</ele>
        <time>2011-04-19T12:04:53Z</time>
      </trkpt>
      <trkpt lat="43.60308" lon="6.94033">
        <ele>118.8601074</ele>
        <time>2011-04-19T12:05:07Z</time>
      </trkpt>
      <trkpt lat="43.60308" lon="6.94034">
        <ele>118.8601074</ele>
        <time>2011-04-19T12:05:08Z</time>
      </trkpt>
      <trkpt lat="43.60305" lon="6.94041">
        <ele>119.3408203</ele>
        <time>2011-04-19T12:05:19Z</time>
      </trkpt>
      <trkpt lat="43.60308" lon="6.94037">
        <ele>118.8601074</ele>
        <time>2011-04-19T12:05:22Z</time>
      </trkpt>
      <trkpt lat="43.60351" lon="6.94008">
        <ele>117.8988037</ele>
        <time>2011-04-19T12:05:25Z</time>
      </trkpt>
      <trkpt lat="43.60351" lon="6.94008">
        <ele>116.4567871</ele>
        <time>2011-04-19T12:05:27Z</time>
      </trkpt>
      <trkpt lat="43.60349" lon="6.94">
        <ele>115.4956055</ele>
        <time>2011-04-19T12:05:30Z</time>
      </trkpt>
      <trkpt lat="43.6035" lon="6.94005">
        <ele>114.0535889</ele>
        <time>2011-04-19T12:05:32Z</time>
      </trkpt>
      <trkpt lat="43.60351" lon="6.94008">
        <ele>114.0535889</ele>
        <time>2011-04-19T12:05:34Z</time>
      </trkpt>
      <trkpt lat="43.60355" lon="6.94022">
        <ele>112.1309814</ele>
        <time>2011-04-19T12:05:38Z</time>
      </trkpt>
      <trkpt lat="43.60356" lon="6.94036">
        <ele>113.0922852</ele>
        <time>2011-04-19T12:05:43Z</time>
      </trkpt>
      <trkpt lat="43.60351" lon="6.94008">
        <ele>110.6888428</ele>
        <time>2011-04-19T12:05:46Z</time>
      </trkpt>
      <trkpt lat="43.60353" lon="6.94005">
        <ele>110.208252</ele>
        <time>2011-04-19T12:05:51Z</time>
      </trkpt>
      <trkpt lat="43.60365" lon="6.93983">
        <ele>110.6888428</ele>
        <time>2011-04-19T12:06:00Z</time>
      </trkpt>
      <trkpt lat="43.6037" lon="6.93967">
        <ele>109.2469482</ele>
        <time>2011-04-19T12:06:03Z</time>
      </trkpt>
      <trkpt lat="43.60377" lon="6.93948">
        <ele>106.8436279</ele>
        <time>2011-04-19T12:06:07Z</time>
      </trkpt>
      <trkpt lat="43.60379" lon="6.93942">
        <ele>107.8050537</ele>
        <time>2011-04-19T12:06:08Z</time>
      </trkpt>
      <trkpt lat="43.60388" lon="6.93907">
        <ele>106.8436279</ele>
        <time>2011-04-19T12:06:14Z</time>
      </trkpt>
      <trkpt lat="43.60404" lon="6.93884">
        <ele>105.8824463</ele>
        <time>2011-04-19T12:06:19Z</time>
      </trkpt>
      <trkpt lat="43.60414" lon="6.93876">
        <ele>105.4017334</ele>
        <time>2011-04-19T12:06:22Z</time>
      </trkpt>
      <trkpt lat="43.6043" lon="6.93864">
        <ele>105.4017334</ele>
        <time>2011-04-19T12:06:26Z</time>
      </trkpt>
      <trkpt lat="43.60446" lon="6.93856">
        <ele>104.4404297</ele>
        <time>2011-04-19T12:06:29Z</time>
      </trkpt>
      <trkpt lat="43.60465" lon="6.93839">
        <ele>104.9210205</ele>
        <time>2011-04-19T12:06:34Z</time>
      </trkpt>
      <trkpt lat="43.6047" lon="6.93816">
        <ele>104.4404297</ele>
        <time>2011-04-19T12:06:38Z</time>
      </trkpt>
      <trkpt lat="43.60473" lon="6.93784">
        <ele>104.9210205</ele>
        <time>2011-04-19T12:06:43Z</time>
      </trkpt>
      <trkpt lat="43.60483" lon="6.93756">
        <ele>104.9210205</ele>
        <time>2011-04-19T12:06:48Z</time>
      </trkpt>
      <trkpt lat="43.60508" lon="6.93751">
        <ele>104.9210205</ele>
        <time>2011-04-19T12:06:54Z</time>
      </trkpt>
      <trkpt lat="43.60517" lon="6.93756">
        <ele>103.4790039</ele>
        <time>2011-04-19T12:06:56Z</time>
      </trkpt>
      <trkpt lat="43.6054" lon="6.93757">
        <ele>100.114502</ele>
        <time>2011-04-19T12:07:01Z</time>
      </trkpt>
      <trkpt lat="43.60545" lon="6.93757">
        <ele>98.6724854</ele>
        <time>2011-04-19T12:07:03Z</time>
      </trkpt>
      <trkpt lat="43.60567" lon="6.93761">
        <ele>92.904541</ele>
        <time>2011-04-19T12:07:12Z</time>
      </trkpt>
      <trkpt lat="43.60566" lon="6.9384">
        <ele>87.1365967</ele>
        <time>2011-04-19T12:07:16Z</time>
      </trkpt>
      <trkpt lat="43.60574" lon="6.93842">
        <ele>87.1365967</ele>
        <time>2011-04-19T12:07:17Z</time>
      </trkpt>
      <trkpt lat="43.60577" lon="6.93842">
        <ele>87.1365967</ele>
        <time>2011-04-19T12:07:18Z</time>
      </trkpt>
      <trkpt lat="43.60581" lon="6.93842">
        <ele>89.0593262</ele>
        <time>2011-04-19T12:07:31Z</time>
      </trkpt>
      <trkpt lat="43.60581" lon="6.93842">
        <ele>87.1365967</ele>
        <time>2011-04-19T12:07:36Z</time>
      </trkpt>
      <trkpt lat="43.60581" lon="6.93845">
        <ele>86.175293</ele>
        <time>2011-04-19T12:07:38Z</time>
      </trkpt>
      <trkpt lat="43.60658" lon="6.93872">
        <ele>85.2139893</ele>
        <time>2011-04-19T12:07:51Z</time>
      </trkpt>
      <trkpt lat="43.60664" lon="6.93871">
        <ele>84.2526855</ele>
        <time>2011-04-19T12:07:53Z</time>
      </trkpt>
      <trkpt lat="43.60675" lon="6.93872">
        <ele>84.2526855</ele>
        <time>2011-04-19T12:07:56Z</time>
      </trkpt>
      <trkpt lat="43.60683" lon="6.93876">
        <ele>84.7333984</ele>
        <time>2011-04-19T12:07:59Z</time>
      </trkpt>
      <trkpt lat="43.60697" lon="6.93887">
        <ele>81.3687744</ele>
        <time>2011-04-19T12:08:05Z</time>
      </trkpt>
      <trkpt lat="43.60703" lon="6.93891">
        <ele>79.9266357</ele>
        <time>2011-04-19T12:08:07Z</time>
      </trkpt>
      <trkpt lat="43.60717" lon="6.93903">
        <ele>76.5621338</ele>
        <time>2011-04-19T12:08:14Z</time>
      </trkpt>
      <trkpt lat="43.6072" lon="6.93905">
        <ele>76.5621338</ele>
        <time>2011-04-19T12:08:15Z</time>
      </trkpt>
      <trkpt lat="43.60736" lon="6.9392">
        <ele>74.6395264</ele>
        <time>2011-04-19T12:08:22Z</time>
      </trkpt>
      <trkpt lat="43.60736" lon="6.9392">
        <ele>74.1588135</ele>
        <time>2011-04-19T12:08:26Z</time>
      </trkpt>
      <trkpt lat="43.60741" lon="6.93928">
        <ele>72.2362061</ele>
        <time>2011-04-19T12:08:30Z</time>
      </trkpt>
      <trkpt lat="43.60742" lon="6.93933">
        <ele>71.7554932</ele>
        <time>2011-04-19T12:08:33Z</time>
      </trkpt>
      <trkpt lat="43.60769" lon="6.93927">
        <ele>68.871582</ele>
        <time>2011-04-19T12:08:38Z</time>
      </trkpt>
      <trkpt lat="43.60769" lon="6.93935">
        <ele>70.3134766</ele>
        <time>2011-04-19T12:08:40Z</time>
      </trkpt>
      <trkpt lat="43.60773" lon="6.93944">
        <ele>67.9102783</ele>
        <time>2011-04-19T12:08:43Z</time>
      </trkpt>
      <trkpt lat="43.60772" lon="6.93955">
        <ele>65.9876709</ele>
        <time>2011-04-19T12:08:47Z</time>
      </trkpt>
      <trkpt lat="43.60771" lon="6.93973">
        <ele>63.1036377</ele>
        <time>2011-04-19T12:08:58Z</time>
      </trkpt>
      <trkpt lat="43.60772" lon="6.93976">
        <ele>63.1036377</ele>
        <time>2011-04-19T12:09:01Z</time>
      </trkpt>
      <trkpt lat="43.60775" lon="6.93979">
        <ele>62.6229248</ele>
        <time>2011-04-19T12:09:04Z</time>
      </trkpt>
      <trkpt lat="43.6078" lon="6.94003">
        <ele>62.142334</ele>
        <time>2011-04-19T12:09:12Z</time>
      </trkpt>
      <trkpt lat="43.60783" lon="6.94005">
        <ele>60.7003174</ele>
        <time>2011-04-19T12:09:14Z</time>
      </trkpt>
      <trkpt lat="43.60793" lon="6.94003">
        <ele>58.2971191</ele>
        <time>2011-04-19T12:09:18Z</time>
      </trkpt>
      <trkpt lat="43.60797" lon="6.94013">
        <ele>54.932373</ele>
        <time>2011-04-19T12:09:22Z</time>
      </trkpt>
      <trkpt lat="43.60797" lon="6.94016">
        <ele>54.932373</ele>
        <time>2011-04-19T12:09:23Z</time>
      </trkpt>
      <trkpt lat="43.60803" lon="6.94031">
        <ele>52.5291748</ele>
        <time>2011-04-19T12:09:29Z</time>
      </trkpt>
      <trkpt lat="43.6081" lon="6.94045">
        <ele>49.6452637</ele>
        <time>2011-04-19T12:09:37Z</time>
      </trkpt>
      <trkpt lat="43.60813" lon="6.94051">
        <ele>49.6452637</ele>
        <time>2011-04-19T12:09:44Z</time>
      </trkpt>
      <trkpt lat="43.6082" lon="6.94046">
        <ele>48.68396</ele>
        <time>2011-04-19T12:09:51Z</time>
      </trkpt>
      <trkpt lat="43.60828" lon="6.93997">
        <ele>47.7225342</ele>
        <time>2011-04-19T12:10:02Z</time>
      </trkpt>
      <trkpt lat="43.60842" lon="6.93963">
        <ele>47.2418213</ele>
        <time>2011-04-19T12:10:09Z</time>
      </trkpt>
      <trkpt lat="43.60862" lon="6.9396">
        <ele>46.2806396</ele>
        <time>2011-04-19T12:10:14Z</time>
      </trkpt>
      <trkpt lat="43.60874" lon="6.93974">
        <ele>49.6452637</ele>
        <time>2011-04-19T12:10:21Z</time>
      </trkpt>
      <trkpt lat="43.60888" lon="6.93981">
        <ele>52.5291748</ele>
        <time>2011-04-19T12:10:30Z</time>
      </trkpt>
      <trkpt lat="43.60895" lon="6.93984">
        <ele>54.932373</ele>
        <time>2011-04-19T12:10:49Z</time>
      </trkpt>
      <trkpt lat="43.60915" lon="6.93991">
        <ele>57.3358154</ele>
        <time>2011-04-19T12:11:02Z</time>
      </trkpt>
      <trkpt lat="43.60947" lon="6.94">
        <ele>60.2197266</ele>
        <time>2011-04-19T12:11:22Z</time>
      </trkpt>
      <trkpt lat="43.6095" lon="6.94001">
        <ele>61.6617432</ele>
        <time>2011-04-19T12:11:24Z</time>
      </trkpt>
      <trkpt lat="43.60959" lon="6.93999">
        <ele>62.142334</ele>
        <time>2011-04-19T12:11:29Z</time>
      </trkpt>
      <trkpt lat="43.60966" lon="6.93991">
        <ele>62.6229248</ele>
        <time>2011-04-19T12:11:37Z</time>
      </trkpt>
      <trkpt lat="43.60952" lon="6.93964">
        <ele>65.9876709</ele>
        <time>2011-04-19T12:11:54Z</time>
      </trkpt>
      <trkpt lat="43.60938" lon="6.93929">
        <ele>69.8328857</ele>
        <time>2011-04-19T12:12:13Z</time>
      </trkpt>
      <trkpt lat="43.60936" lon="6.93914">
        <ele>70.7941895</ele>
        <time>2011-04-19T12:12:20Z</time>
      </trkpt>
      <trkpt lat="43.6096" lon="6.93899">
        <ele>74.1588135</ele>
        <time>2011-04-19T12:12:38Z</time>
      </trkpt>
      <trkpt lat="43.60969" lon="6.93887">
        <ele>77.5234375</ele>
        <time>2011-04-19T12:12:51Z</time>
      </trkpt>
      <trkpt lat="43.60969" lon="6.93869">
        <ele>78.4847412</ele>
        <time>2011-04-19T12:13:00Z</time>
      </trkpt>
      <trkpt lat="43.60967" lon="6.93863">
        <ele>78.4847412</ele>
        <time>2011-04-19T12:13:04Z</time>
      </trkpt>
      <trkpt lat="43.60958" lon="6.93847">
        <ele>79.4460449</ele>
        <time>2011-04-19T12:13:12Z</time>
      </trkpt>
      <trkpt lat="43.60963" lon="6.93829">
        <ele>80.8881836</ele>
        <time>2011-04-19T12:13:17Z</time>
      </trkpt>
      <trkpt lat="43.60967" lon="6.93826">
        <ele>80.8881836</ele>
        <time>2011-04-19T12:13:19Z</time>
      </trkpt>
      <trkpt lat="43.61001" lon="6.93819">
        <ele>84.7333984</ele>
        <time>2011-04-19T12:13:39Z</time>
      </trkpt>
      <trkpt lat="43.61028" lon="6.93804">
        <ele>86.6560059</ele>
        <time>2011-04-19T12:13:57Z</time>
      </trkpt>
      <trkpt lat="43.61036" lon="6.93774">
        <ele>90.5013428</ele>
        <time>2011-04-19T12:14:13Z</time>
      </trkpt>
      <trkpt lat="43.61036" lon="6.93747">
        <ele>91.4625244</ele>
        <time>2011-04-19T12:14:23Z</time>
      </trkpt>
      <trkpt lat="43.61047" lon="6.93731">
        <ele>91.9432373</ele>
        <time>2011-04-19T12:14:28Z</time>
      </trkpt>
      <trkpt lat="43.61091" lon="6.93715">
        <ele>94.3465576</ele>
        <time>2011-04-19T12:14:48Z</time>
      </trkpt>
      <trkpt lat="43.6113" lon="6.93726">
        <ele>96.7498779</ele>
        <time>2011-04-19T12:15:07Z</time>
      </trkpt>
      <trkpt lat="43.61148" lon="6.93719">
        <ele>99.1530762</ele>
        <time>2011-04-19T12:15:18Z</time>
      </trkpt>
      <trkpt lat="43.61175" lon="6.93686">
        <ele>102.5177002</ele>
        <time>2011-04-19T12:15:39Z</time>
      </trkpt>
      <trkpt lat="43.61176" lon="6.93685">
        <ele>102.5177002</ele>
        <time>2011-04-19T12:15:40Z</time>
      </trkpt>
      <trkpt lat="43.6121" lon="6.93662">
        <ele>105.4017334</ele>
        <time>2011-04-19T12:16:02Z</time>
      </trkpt>
      <trkpt lat="43.61246" lon="6.93663">
        <ele>107.8050537</ele>
        <time>2011-04-19T12:16:21Z</time>
      </trkpt>
      <trkpt lat="43.61261" lon="6.93659">
        <ele>110.208252</ele>
        <time>2011-04-19T12:16:32Z</time>
      </trkpt>
      <trkpt lat="43.61276" lon="6.93633">
        <ele>113.0922852</ele>
        <time>2011-04-19T12:16:45Z</time>
      </trkpt>
      <trkpt lat="43.61283" lon="6.93618">
        <ele>112.1309814</ele>
        <time>2011-04-19T12:16:51Z</time>
      </trkpt>
      <trkpt lat="43.61312" lon="6.93634">
        <ele>110.208252</ele>
        <time>2011-04-19T12:16:57Z</time>
      </trkpt>
      <trkpt lat="43.61325" lon="6.93653">
        <ele>104.9210205</ele>
        <time>2011-04-19T12:17:00Z</time>
      </trkpt>
      <trkpt lat="43.6133" lon="6.93661">
        <ele>104.9210205</ele>
        <time>2011-04-19T12:17:01Z</time>
      </trkpt>
      <trkpt lat="43.61352" lon="6.93691">
        <ele>101.5563965</ele>
        <time>2011-04-19T12:17:07Z</time>
      </trkpt>
      <trkpt lat="43.61363" lon="6.93705">
        <ele>100.5950928</ele>
        <time>2011-04-19T12:17:10Z</time>
      </trkpt>
      <trkpt lat="43.61373" lon="6.93716">
        <ele>99.1530762</ele>
        <time>2011-04-19T12:17:12Z</time>
      </trkpt>
      <trkpt lat="43.61385" lon="6.93728">
        <ele>95.3077393</ele>
        <time>2011-04-19T12:17:14Z</time>
      </trkpt>
      <trkpt lat="43.6139" lon="6.93733">
        <ele>95.3077393</ele>
        <time>2011-04-19T12:17:15Z</time>
      </trkpt>
      <trkpt lat="43.61398" lon="6.93757">
        <ele>93.3851318</ele>
        <time>2011-04-19T12:17:19Z</time>
      </trkpt>
      <trkpt lat="43.61398" lon="6.93763">
        <ele>92.4239502</ele>
        <time>2011-04-19T12:17:20Z</time>
      </trkpt>
      <trkpt lat="43.61417" lon="6.93762">
        <ele>90.9819336</ele>
        <time>2011-04-19T12:17:25Z</time>
      </trkpt>
      <trkpt lat="43.61427" lon="6.93757">
        <ele>89.539917</ele>
        <time>2011-04-19T12:17:27Z</time>
      </trkpt>
      <trkpt lat="43.61437" lon="6.93761">
        <ele>87.6171875</ele>
        <time>2011-04-19T12:17:29Z</time>
      </trkpt>
      <trkpt lat="43.61429" lon="6.93781">
        <ele>84.7333984</ele>
        <time>2011-04-19T12:17:34Z</time>
      </trkpt>
      <trkpt lat="43.61418" lon="6.93786">
        <ele>83.7719727</ele>
        <time>2011-04-19T12:17:36Z</time>
      </trkpt>
      <trkpt lat="43.61411" lon="6.93791">
        <ele>83.2913818</ele>
        <time>2011-04-19T12:17:38Z</time>
      </trkpt>
      <trkpt lat="43.61425" lon="6.93813">
        <ele>81.3687744</ele>
        <time>2011-04-19T12:17:43Z</time>
      </trkpt>
      <trkpt lat="43.61431" lon="6.93814">
        <ele>78.4847412</ele>
        <time>2011-04-19T12:17:44Z</time>
      </trkpt>
      <trkpt lat="43.61441" lon="6.93819">
        <ele>79.4460449</ele>
        <time>2011-04-19T12:17:46Z</time>
      </trkpt>
      <trkpt lat="43.61479" lon="6.93853">
        <ele>82.810791</ele>
        <time>2011-04-19T12:17:58Z</time>
      </trkpt>
      <trkpt lat="43.61498" lon="6.93855">
        <ele>86.175293</ele>
        <time>2011-04-19T12:18:07Z</time>
      </trkpt>
      <trkpt lat="43.61518" lon="6.93863">
        <ele>89.539917</ele>
        <time>2011-04-19T12:18:18Z</time>
      </trkpt>
      <trkpt lat="43.61552" lon="6.93906">
        <ele>87.1365967</ele>
        <time>2011-04-19T12:18:34Z</time>
      </trkpt>
      <trkpt lat="43.61567" lon="6.93915">
        <ele>84.2526855</ele>
        <time>2011-04-19T12:18:37Z</time>
      </trkpt>
      <trkpt lat="43.61583" lon="6.93935">
        <ele>84.2526855</ele>
        <time>2011-04-19T12:18:40Z</time>
      </trkpt>
      <trkpt lat="43.61602" lon="6.93962">
        <ele>83.7719727</ele>
        <time>2011-04-19T12:18:44Z</time>
      </trkpt>
      <trkpt lat="43.61617" lon="6.93976">
        <ele>85.6945801</ele>
        <time>2011-04-19T12:18:48Z</time>
      </trkpt>
      <trkpt lat="43.61633" lon="6.93983">
        <ele>88.5787354</ele>
        <time>2011-04-19T12:18:54Z</time>
      </trkpt>
      <trkpt lat="43.61634" lon="6.9399">
        <ele>91.9432373</ele>
        <time>2011-04-19T12:19:03Z</time>
      </trkpt>
      <trkpt lat="43.61634" lon="6.9399">
        <ele>91.9432373</ele>
        <time>2011-04-19T12:19:04Z</time>
      </trkpt>
      <trkpt lat="43.61644" lon="6.94037">
        <ele>95.7884521</ele>
        <time>2011-04-19T12:19:21Z</time>
      </trkpt>
      <trkpt lat="43.61646" lon="6.9405">
        <ele>96.2692871</ele>
        <time>2011-04-19T12:19:29Z</time>
      </trkpt>
      <trkpt lat="43.61652" lon="6.94055">
        <ele>97.7111816</ele>
        <time>2011-04-19T12:19:33Z</time>
      </trkpt>
      <trkpt lat="43.61693" lon="6.94027">
        <ele>96.2692871</ele>
        <time>2011-04-19T12:19:50Z</time>
      </trkpt>
      <trkpt lat="43.61709" lon="6.94016">
        <ele>93.8658447</ele>
        <time>2011-04-19T12:19:54Z</time>
      </trkpt>
      <trkpt lat="43.61737" lon="6.94015">
        <ele>95.3077393</ele>
        <time>2011-04-19T12:20:01Z</time>
      </trkpt>
      <trkpt lat="43.61793" lon="6.94028">
        <ele>95.3077393</ele>
        <time>2011-04-19T12:20:19Z</time>
      </trkpt>
      <trkpt lat="43.61811" lon="6.94033">
        <ele>96.7498779</ele>
        <time>2011-04-19T12:20:26Z</time>
      </trkpt>
      <trkpt lat="43.61825" lon="6.94031">
        <ele>96.2692871</ele>
        <time>2011-04-19T12:20:30Z</time>
      </trkpt>
      <trkpt lat="43.61835" lon="6.94031">
        <ele>96.7498779</ele>
        <time>2011-04-19T12:20:34Z</time>
      </trkpt>
      <trkpt lat="43.61857" lon="6.94031">
        <ele>97.7111816</ele>
        <time>2011-04-19T12:20:44Z</time>
      </trkpt>
      <trkpt lat="43.61868" lon="6.94031">
        <ele>98.6724854</ele>
        <time>2011-04-19T12:20:49Z</time>
      </trkpt>
      <trkpt lat="43.61877" lon="6.94031">
        <ele>99.1530762</ele>
        <time>2011-04-19T12:20:54Z</time>
      </trkpt>
      <trkpt lat="43.61902" lon="6.94041">
        <ele>102.0371094</ele>
        <time>2011-04-19T12:21:10Z</time>
      </trkpt>
      <trkpt lat="43.61929" lon="6.94061">
        <ele>103.9597168</ele>
        <time>2011-04-19T12:21:29Z</time>
      </trkpt>
      <trkpt lat="43.61977" lon="6.94101">
        <ele>105.4017334</ele>
        <time>2011-04-19T12:21:57Z</time>
      </trkpt>
      <trkpt lat="43.62001" lon="6.94118">
        <ele>106.8436279</ele>
        <time>2011-04-19T12:22:08Z</time>
      </trkpt>
      <trkpt lat="43.62022" lon="6.94121">
        <ele>106.8436279</ele>
        <time>2011-04-19T12:22:19Z</time>
      </trkpt>
      <trkpt lat="43.62028" lon="6.9412">
        <ele>107.8050537</ele>
        <time>2011-04-19T12:22:22Z</time>
      </trkpt>
      <trkpt lat="43.62036" lon="6.94119">
        <ele>109.2469482</ele>
        <time>2011-04-19T12:22:27Z</time>
      </trkpt>
      <trkpt lat="43.62058" lon="6.94119">
        <ele>109.7276611</ele>
        <time>2011-04-19T12:22:39Z</time>
      </trkpt>
      <trkpt lat="43.62077" lon="6.94113">
        <ele>112.6115723</ele>
        <time>2011-04-19T12:22:51Z</time>
      </trkpt>
      <trkpt lat="43.62078" lon="6.94112">
        <ele>112.6115723</ele>
        <time>2011-04-19T12:22:52Z</time>
      </trkpt>
      <trkpt lat="43.62079" lon="6.94111">
        <ele>112.1309814</ele>
        <time>2011-04-19T12:22:53Z</time>
      </trkpt>
      <trkpt lat="43.62077" lon="6.94106">
        <ele>113.572998</ele>
        <time>2011-04-19T12:22:57Z</time>
      </trkpt>
      <trkpt lat="43.62035" lon="6.94089">
        <ele>115.0148926</ele>
        <time>2011-04-19T12:23:20Z</time>
      </trkpt>
      <trkpt lat="43.61994" lon="6.94063">
        <ele>118.3793945</ele>
        <time>2011-04-19T12:23:43Z</time>
      </trkpt>
      <trkpt lat="43.61973" lon="6.9404">
        <ele>121.2635498</ele>
        <time>2011-04-19T12:23:58Z</time>
      </trkpt>
      <trkpt lat="43.61972" lon="6.94038">
        <ele>121.2635498</ele>
        <time>2011-04-19T12:23:59Z</time>
      </trkpt>
      <trkpt lat="43.61957" lon="6.93988">
        <ele>125.1087646</ele>
        <time>2011-04-19T12:24:21Z</time>
      </trkpt>
      <trkpt lat="43.61967" lon="6.93923">
        <ele>127.5119629</ele>
        <time>2011-04-19T12:24:46Z</time>
      </trkpt>
      <trkpt lat="43.6197" lon="6.93914">
        <ele>129.4346924</ele>
        <time>2011-04-19T12:24:50Z</time>
      </trkpt>
      <trkpt lat="43.61999" lon="6.93859">
        <ele>132.3186035</ele>
        <time>2011-04-19T12:25:15Z</time>
      </trkpt>
      <trkpt lat="43.6203" lon="6.93824">
        <ele>134.2412109</ele>
        <time>2011-04-19T12:25:36Z</time>
      </trkpt>
      <trkpt lat="43.62036" lon="6.93817">
        <ele>135.6831055</ele>
        <time>2011-04-19T12:25:40Z</time>
      </trkpt>
      <trkpt lat="43.6208" lon="6.93761">
        <ele>137.1252441</ele>
        <time>2011-04-19T12:26:08Z</time>
      </trkpt>
      <trkpt lat="43.62097" lon="6.93739">
        <ele>140.970459</ele>
        <time>2011-04-19T12:26:21Z</time>
      </trkpt>
      <trkpt lat="43.62077" lon="6.9372">
        <ele>140.4898682</ele>
        <time>2011-04-19T12:26:36Z</time>
      </trkpt>
      <trkpt lat="43.62071" lon="6.93723">
        <ele>139.0478516</ele>
        <time>2011-04-19T12:26:39Z</time>
      </trkpt>
      <trkpt lat="43.62067" lon="6.93724">
        <ele>139.0478516</ele>
        <time>2011-04-19T12:26:41Z</time>
      </trkpt>
      <trkpt lat="43.62063" lon="6.93723">
        <ele>139.0478516</ele>
        <time>2011-04-19T12:26:45Z</time>
      </trkpt>
      <trkpt lat="43.62059" lon="6.93723">
        <ele>139.0478516</ele>
        <time>2011-04-19T12:26:48Z</time>
      </trkpt>
      <trkpt lat="43.62054" lon="6.93721">
        <ele>139.5284424</ele>
        <time>2011-04-19T12:26:51Z</time>
      </trkpt>
      <trkpt lat="43.62048" lon="6.93723">
        <ele>139.0478516</ele>
        <time>2011-04-19T12:26:55Z</time>
      </trkpt>
      <trkpt lat="43.62032" lon="6.9372">
        <ele>139.5284424</ele>
        <time>2011-04-19T12:27:04Z</time>
      </trkpt>
      <trkpt lat="43.62026" lon="6.9372">
        <ele>140.0091553</ele>
        <time>2011-04-19T12:27:07Z</time>
      </trkpt>
      <trkpt lat="43.62018" lon="6.93712">
        <ele>141.4510498</ele>
        <time>2011-04-19T12:27:12Z</time>
      </trkpt>
      <trkpt lat="43.62002" lon="6.93707">
        <ele>141.4510498</ele>
        <time>2011-04-19T12:27:19Z</time>
      </trkpt>
      <trkpt lat="43.61967" lon="6.93695">
        <ele>144.3352051</ele>
        <time>2011-04-19T12:27:37Z</time>
      </trkpt>
      <trkpt lat="43.61926" lon="6.93727">
        <ele>143.3736572</ele>
        <time>2011-04-19T12:27:51Z</time>
      </trkpt>
      <trkpt lat="43.61902" lon="6.93764">
        <ele>145.2963867</ele>
        <time>2011-04-19T12:28:03Z</time>
      </trkpt>
      <trkpt lat="43.61891" lon="6.93764">
        <ele>146.2578125</ele>
        <time>2011-04-19T12:28:07Z</time>
      </trkpt>
      <trkpt lat="43.61887" lon="6.93761">
        <ele>147.2189941</ele>
        <time>2011-04-19T12:28:09Z</time>
      </trkpt>
      <trkpt lat="43.61883" lon="6.93755">
        <ele>147.2189941</ele>
        <time>2011-04-19T12:28:12Z</time>
      </trkpt>
      <trkpt lat="43.61878" lon="6.93756">
        <ele>146.7384033</ele>
        <time>2011-04-19T12:28:24Z</time>
      </trkpt>
      <trkpt lat="43.61877" lon="6.93757">
        <ele>146.7384033</ele>
        <time>2011-04-19T12:28:26Z</time>
      </trkpt>
      <trkpt lat="43.61878" lon="6.9376">
        <ele>146.2578125</ele>
        <time>2011-04-19T12:28:28Z</time>
      </trkpt>
      <trkpt lat="43.61871" lon="6.93769">
        <ele>144.8157959</ele>
        <time>2011-04-19T12:28:33Z</time>
      </trkpt>
      <trkpt lat="43.61894" lon="6.93769">
        <ele>140.970459</ele>
        <time>2011-04-19T12:28:36Z</time>
      </trkpt>
      <trkpt lat="43.61894" lon="6.93769">
        <ele>140.970459</ele>
        <time>2011-04-19T12:28:37Z</time>
      </trkpt>
      <trkpt lat="43.61894" lon="6.93769">
        <ele>139.0478516</ele>
        <time>2011-04-19T12:28:38Z</time>
      </trkpt>
      <trkpt lat="43.61894" lon="6.93769">
        <ele>135.2025146</ele>
        <time>2011-04-19T12:28:41Z</time>
      </trkpt>
      <trkpt lat="43.61849" lon="6.93807">
        <ele>135.2025146</ele>
        <time>2011-04-19T12:28:42Z</time>
      </trkpt>
      <trkpt lat="43.61847" lon="6.93831">
        <ele>132.3186035</ele>
        <time>2011-04-19T12:28:46Z</time>
      </trkpt>
      <trkpt lat="43.61847" lon="6.93836">
        <ele>130.3959961</ele>
        <time>2011-04-19T12:28:47Z</time>
      </trkpt>
      <trkpt lat="43.61838" lon="6.93846">
        <ele>128.9541016</ele>
        <time>2011-04-19T12:28:51Z</time>
      </trkpt>
      <trkpt lat="43.61833" lon="6.93859">
        <ele>125.5893555</ele>
        <time>2011-04-19T12:28:55Z</time>
      </trkpt>
      <trkpt lat="43.61818" lon="6.93851">
        <ele>123.1861572</ele>
        <time>2011-04-19T12:29:00Z</time>
      </trkpt>
      <trkpt lat="43.61815" lon="6.93848">
        <ele>121.7441406</ele>
        <time>2011-04-19T12:29:02Z</time>
      </trkpt>
      <trkpt lat="43.61809" lon="6.93844">
        <ele>118.3793945</ele>
        <time>2011-04-19T12:29:04Z</time>
      </trkpt>
      <trkpt lat="43.61806" lon="6.93843">
        <ele>118.3793945</ele>
        <time>2011-04-19T12:29:05Z</time>
      </trkpt>
      <trkpt lat="43.618" lon="6.93836">
        <ele>116.4567871</ele>
        <time>2011-04-19T12:29:07Z</time>
      </trkpt>
      <trkpt lat="43.61791" lon="6.93837">
        <ele>114.5341797</ele>
        <time>2011-04-19T12:29:10Z</time>
      </trkpt>
      <trkpt lat="43.6179" lon="6.93844">
        <ele>114.0535889</ele>
        <time>2011-04-19T12:29:12Z</time>
      </trkpt>
      <trkpt lat="43.61779" lon="6.9385">
        <ele>112.1309814</ele>
        <time>2011-04-19T12:29:16Z</time>
      </trkpt>
      <trkpt lat="43.61772" lon="6.93864">
        <ele>107.8050537</ele>
        <time>2011-04-19T12:29:19Z</time>
      </trkpt>
      <trkpt lat="43.61776" lon="6.93883">
        <ele>105.4017334</ele>
        <time>2011-04-19T12:29:22Z</time>
      </trkpt>
      <trkpt lat="43.6178" lon="6.93891">
        <ele>106.3630371</ele>
        <time>2011-04-19T12:29:24Z</time>
      </trkpt>
      <trkpt lat="43.61779" lon="6.93898">
        <ele>106.3630371</ele>
        <time>2011-04-19T12:29:26Z</time>
      </trkpt>
      <trkpt lat="43.61779" lon="6.93907">
        <ele>104.9210205</ele>
        <time>2011-04-19T12:29:28Z</time>
      </trkpt>
      <trkpt lat="43.61768" lon="6.93922">
        <ele>101.5563965</ele>
        <time>2011-04-19T12:29:32Z</time>
      </trkpt>
      <trkpt lat="43.61766" lon="6.93926">
        <ele>101.5563965</ele>
        <time>2011-04-19T12:29:33Z</time>
      </trkpt>
      <trkpt lat="43.61768" lon="6.93944">
        <ele>100.5950928</ele>
        <time>2011-04-19T12:29:40Z</time>
      </trkpt>
      <trkpt lat="43.6177" lon="6.93946">
        <ele>99.6337891</ele>
        <time>2011-04-19T12:29:41Z</time>
      </trkpt>
      <trkpt lat="43.61794" lon="6.93968">
        <ele>99.6337891</ele>
        <time>2011-04-19T12:29:51Z</time>
      </trkpt>
      <trkpt lat="43.61799" lon="6.9397">
        <ele>99.1530762</ele>
        <time>2011-04-19T12:29:53Z</time>
      </trkpt>
      <trkpt lat="43.61813" lon="6.93979">
        <ele>101.5563965</ele>
        <time>2011-04-19T12:29:59Z</time>
      </trkpt>
      <trkpt lat="43.61842" lon="6.93996">
        <ele>101.0756836</ele>
        <time>2011-04-19T12:30:08Z</time>
      </trkpt>
      <trkpt lat="43.61846" lon="6.94009">
        <ele>102.0371094</ele>
        <time>2011-04-19T12:30:12Z</time>
      </trkpt>
      <trkpt lat="43.61843" lon="6.94021">
        <ele>99.1530762</ele>
        <time>2011-04-19T12:30:15Z</time>
      </trkpt>
      <trkpt lat="43.61836" lon="6.94031">
        <ele>98.1918945</ele>
        <time>2011-04-19T12:30:17Z</time>
      </trkpt>
      <trkpt lat="43.61822" lon="6.94031">
        <ele>96.2692871</ele>
        <time>2011-04-19T12:30:20Z</time>
      </trkpt>
      <trkpt lat="43.61801" lon="6.94031">
        <ele>96.7498779</ele>
        <time>2011-04-19T12:30:25Z</time>
      </trkpt>
      <trkpt lat="43.6179" lon="6.94027">
        <ele>96.2692871</ele>
        <time>2011-04-19T12:30:28Z</time>
      </trkpt>
      <trkpt lat="43.61757" lon="6.94018">
        <ele>93.8658447</ele>
        <time>2011-04-19T12:30:35Z</time>
      </trkpt>
      <trkpt lat="43.61741" lon="6.94016">
        <ele>94.3465576</ele>
        <time>2011-04-19T12:30:38Z</time>
      </trkpt>
      <trkpt lat="43.61721" lon="6.94014">
        <ele>93.8658447</ele>
        <time>2011-04-19T12:30:41Z</time>
      </trkpt>
      <trkpt lat="43.61689" lon="6.94032">
        <ele>95.3077393</ele>
        <time>2011-04-19T12:30:46Z</time>
      </trkpt>
      <trkpt lat="43.61671" lon="6.94046">
        <ele>95.7884521</ele>
        <time>2011-04-19T12:30:50Z</time>
      </trkpt>
      <trkpt lat="43.61656" lon="6.94053">
        <ele>98.1918945</ele>
        <time>2011-04-19T12:30:54Z</time>
      </trkpt>
      <trkpt lat="43.61644" lon="6.94059">
        <ele>97.7111816</ele>
        <time>2011-04-19T12:30:57Z</time>
      </trkpt>
      <trkpt lat="43.61608" lon="6.94075">
        <ele>99.1530762</ele>
        <time>2011-04-19T12:31:12Z</time>
      </trkpt>
      <trkpt lat="43.61607" lon="6.94076">
        <ele>99.1530762</ele>
        <time>2011-04-19T12:31:26Z</time>
      </trkpt>
      <trkpt lat="43.61603" lon="6.94082">
        <ele>99.6337891</ele>
        <time>2011-04-19T12:31:30Z</time>
      </trkpt>
      <trkpt lat="43.61583" lon="6.94109">
        <ele>102.5177002</ele>
        <time>2011-04-19T12:31:45Z</time>
      </trkpt>
      <trkpt lat="43.61582" lon="6.94128">
        <ele>103.9597168</ele>
        <time>2011-04-19T12:31:54Z</time>
      </trkpt>
      <trkpt lat="43.6159" lon="6.94132">
        <ele>105.8824463</ele>
        <time>2011-04-19T12:32:01Z</time>
      </trkpt>
      <trkpt lat="43.61593" lon="6.94131">
        <ele>106.8436279</ele>
        <time>2011-04-19T12:32:03Z</time>
      </trkpt>
      <trkpt lat="43.6162" lon="6.94123">
        <ele>110.208252</ele>
        <time>2011-04-19T12:32:20Z</time>
      </trkpt>
      <trkpt lat="43.61641" lon="6.94118">
        <ele>113.572998</ele>
        <time>2011-04-19T12:32:34Z</time>
      </trkpt>
      <trkpt lat="43.61666" lon="6.94111">
        <ele>116.9375</ele>
        <time>2011-04-19T12:32:53Z</time>
      </trkpt>
      <trkpt lat="43.61678" lon="6.94108">
        <ele>117.8988037</ele>
        <time>2011-04-19T12:33:05Z</time>
      </trkpt>
      <trkpt lat="43.61692" lon="6.94104">
        <ele>118.8601074</ele>
        <time>2011-04-19T12:33:15Z</time>
      </trkpt>
      <trkpt lat="43.61716" lon="6.94098">
        <ele>121.2635498</ele>
        <time>2011-04-19T12:33:33Z</time>
      </trkpt>
      <trkpt lat="43.61737" lon="6.94095">
        <ele>123.666748</ele>
        <time>2011-04-19T12:33:47Z</time>
      </trkpt>
      <trkpt lat="43.61748" lon="6.94093">
        <ele>124.6280518</ele>
        <time>2011-04-19T12:33:55Z</time>
      </trkpt>
      <trkpt lat="43.61774" lon="6.94103">
        <ele>128.4733887</ele>
        <time>2011-04-19T12:34:15Z</time>
      </trkpt>
      <trkpt lat="43.61796" lon="6.9412">
        <ele>131.3572998</ele>
        <time>2011-04-19T12:34:34Z</time>
      </trkpt>
      <trkpt lat="43.61805" lon="6.94129">
        <ele>132.3186035</ele>
        <time>2011-04-19T12:34:42Z</time>
      </trkpt>
      <trkpt lat="43.61808" lon="6.94132">
        <ele>132.7993164</ele>
        <time>2011-04-19T12:34:45Z</time>
      </trkpt>
      <trkpt lat="43.61813" lon="6.94137">
        <ele>132.7993164</ele>
        <time>2011-04-19T12:34:50Z</time>
      </trkpt>
      <trkpt lat="43.6182" lon="6.94146">
        <ele>133.760498</ele>
        <time>2011-04-19T12:34:57Z</time>
      </trkpt>
      <trkpt lat="43.61842" lon="6.94191">
        <ele>135.2025146</ele>
        <time>2011-04-19T12:35:20Z</time>
      </trkpt>
      <trkpt lat="43.61857" lon="6.94242">
        <ele>136.6446533</ele>
        <time>2011-04-19T12:35:40Z</time>
      </trkpt>
      <trkpt lat="43.6187" lon="6.94279">
        <ele>139.5284424</ele>
        <time>2011-04-19T12:35:58Z</time>
      </trkpt>
      <trkpt lat="43.61873" lon="6.94286">
        <ele>140.4898682</ele>
        <time>2011-04-19T12:36:02Z</time>
      </trkpt>
      <trkpt lat="43.61875" lon="6.94291">
        <ele>140.970459</ele>
        <time>2011-04-19T12:36:05Z</time>
      </trkpt>
      <trkpt lat="43.61886" lon="6.9432">
        <ele>143.3736572</ele>
        <time>2011-04-19T12:36:22Z</time>
      </trkpt>
      <trkpt lat="43.61889" lon="6.94325">
        <ele>144.3352051</ele>
        <time>2011-04-19T12:36:26Z</time>
      </trkpt>
      <trkpt lat="43.6189" lon="6.94327">
        <ele>144.3352051</ele>
        <time>2011-04-19T12:36:30Z</time>
      </trkpt>
      <trkpt lat="43.61884" lon="6.94335">
        <ele>145.2963867</ele>
        <time>2011-04-19T12:36:33Z</time>
      </trkpt>
      <trkpt lat="43.61876" lon="6.94375">
        <ele>146.7384033</ele>
        <time>2011-04-19T12:36:51Z</time>
      </trkpt>
      <trkpt lat="43.61869" lon="6.94379">
        <ele>146.7384033</ele>
        <time>2011-04-19T12:37:06Z</time>
      </trkpt>
      <trkpt lat="43.61843" lon="6.94364">
        <ele>146.7384033</ele>
        <time>2011-04-19T12:37:18Z</time>
      </trkpt>
      <trkpt lat="43.61839" lon="6.9436">
        <ele>146.7384033</ele>
        <time>2011-04-19T12:37:19Z</time>
      </trkpt>
      <trkpt lat="43.61819" lon="6.94334">
        <ele>146.7384033</ele>
        <time>2011-04-19T12:37:25Z</time>
      </trkpt>
      <trkpt lat="43.61807" lon="6.94314">
        <ele>146.7384033</ele>
        <time>2011-04-19T12:37:29Z</time>
      </trkpt>
      <trkpt lat="43.61793" lon="6.94284">
        <ele>145.7770996</ele>
        <time>2011-04-19T12:37:34Z</time>
      </trkpt>
      <trkpt lat="43.61785" lon="6.9424">
        <ele>145.7770996</ele>
        <time>2011-04-19T12:37:41Z</time>
      </trkpt>
      <trkpt lat="43.6178" lon="6.94223">
        <ele>146.2578125</ele>
        <time>2011-04-19T12:37:44Z</time>
      </trkpt>
      <trkpt lat="43.61762" lon="6.94196">
        <ele>145.7770996</ele>
        <time>2011-04-19T12:37:50Z</time>
      </trkpt>
      <trkpt lat="43.61753" lon="6.9418">
        <ele>144.3352051</ele>
        <time>2011-04-19T12:37:53Z</time>
      </trkpt>
      <trkpt lat="43.61748" lon="6.94171">
        <ele>142.8930664</ele>
        <time>2011-04-19T12:37:56Z</time>
      </trkpt>
      <trkpt lat="43.61748" lon="6.94171">
        <ele>140.4898682</ele>
        <time>2011-04-19T12:37:58Z</time>
      </trkpt>
      <trkpt lat="43.61748" lon="6.94171">
        <ele>139.5284424</ele>
        <time>2011-04-19T12:38:01Z</time>
      </trkpt>
      <trkpt lat="43.61748" lon="6.94171">
        <ele>138.0865479</ele>
        <time>2011-04-19T12:38:03Z</time>
      </trkpt>
      <trkpt lat="43.61714" lon="6.94139">
        <ele>136.6446533</ele>
        <time>2011-04-19T12:38:05Z</time>
      </trkpt>
      <trkpt lat="43.61708" lon="6.9414">
        <ele>134.2412109</ele>
        <time>2011-04-19T12:38:08Z</time>
      </trkpt>
      <trkpt lat="43.61702" lon="6.94141">
        <ele>132.7993164</ele>
        <time>2011-04-19T12:38:10Z</time>
      </trkpt>
      <trkpt lat="43.61692" lon="6.94142">
        <ele>130.876709</ele>
        <time>2011-04-19T12:38:12Z</time>
      </trkpt>
      <trkpt lat="43.61681" lon="6.94145">
        <ele>126.5506592</ele>
        <time>2011-04-19T12:38:14Z</time>
      </trkpt>
      <trkpt lat="43.61676" lon="6.94147">
        <ele>126.5506592</ele>
        <time>2011-04-19T12:38:15Z</time>
      </trkpt>
      <trkpt lat="43.61649" lon="6.94181">
        <ele>123.1861572</ele>
        <time>2011-04-19T12:38:23Z</time>
      </trkpt>
      <trkpt lat="43.61646" lon="6.94184">
        <ele>123.1861572</ele>
        <time>2011-04-19T12:38:24Z</time>
      </trkpt>
      <trkpt lat="43.61637" lon="6.94164">
        <ele>119.8214111</ele>
        <time>2011-04-19T12:38:28Z</time>
      </trkpt>
      <trkpt lat="43.61637" lon="6.94151">
        <ele>117.8988037</ele>
        <time>2011-04-19T12:38:30Z</time>
      </trkpt>
      <trkpt lat="43.6163" lon="6.94134">
        <ele>115.9761963</ele>
        <time>2011-04-19T12:38:35Z</time>
      </trkpt>
      <trkpt lat="43.61623" lon="6.94136">
        <ele>114.0535889</ele>
        <time>2011-04-19T12:38:37Z</time>
      </trkpt>
      <trkpt lat="43.61615" lon="6.94144">
        <ele>112.1309814</ele>
        <time>2011-04-19T12:38:40Z</time>
      </trkpt>
      <trkpt lat="43.61611" lon="6.9415">
        <ele>109.7276611</ele>
        <time>2011-04-19T12:38:43Z</time>
      </trkpt>
      <trkpt lat="43.61611" lon="6.9415">
        <ele>109.2469482</ele>
        <time>2011-04-19T12:38:44Z</time>
      </trkpt>
      <trkpt lat="43.61589" lon="6.94132">
        <ele>107.8050537</ele>
        <time>2011-04-19T12:38:47Z</time>
      </trkpt>
      <trkpt lat="43.61576" lon="6.94121">
        <ele>105.8824463</ele>
        <time>2011-04-19T12:38:49Z</time>
      </trkpt>
      <trkpt lat="43.61559" lon="6.94119">
        <ele>100.114502</ele>
        <time>2011-04-19T12:38:52Z</time>
      </trkpt>
      <trkpt lat="43.61547" lon="6.9411">
        <ele>102.0371094</ele>
        <time>2011-04-19T12:38:54Z</time>
      </trkpt>
      <trkpt lat="43.6154" lon="6.94104">
        <ele>103.9597168</ele>
        <time>2011-04-19T12:38:56Z</time>
      </trkpt>
      <trkpt lat="43.61533" lon="6.94099">
        <ele>106.3630371</ele>
        <time>2011-04-19T12:38:59Z</time>
      </trkpt>
      <trkpt lat="43.61524" lon="6.9409">
        <ele>107.8050537</ele>
        <time>2011-04-19T12:39:04Z</time>
      </trkpt>
      <trkpt lat="43.61513" lon="6.94087">
        <ele>109.7276611</ele>
        <time>2011-04-19T12:39:11Z</time>
      </trkpt>
      <trkpt lat="43.615" lon="6.94079">
        <ele>113.572998</ele>
        <time>2011-04-19T12:39:23Z</time>
      </trkpt>
      <trkpt lat="43.61496" lon="6.94076">
        <ele>113.572998</ele>
        <time>2011-04-19T12:39:28Z</time>
      </trkpt>
      <trkpt lat="43.61491" lon="6.94072">
        <ele>116.9375</ele>
        <time>2011-04-19T12:39:42Z</time>
      </trkpt>
      <trkpt lat="43.61491" lon="6.94072">
        <ele>119.8214111</ele>
        <time>2011-04-19T12:39:53Z</time>
      </trkpt>
      <trkpt lat="43.61468" lon="6.94073">
        <ele>121.2635498</ele>
        <time>2011-04-19T12:40:05Z</time>
      </trkpt>
      <trkpt lat="43.61448" lon="6.9408">
        <ele>124.1473389</ele>
        <time>2011-04-19T12:40:21Z</time>
      </trkpt>
      <trkpt lat="43.61443" lon="6.94078">
        <ele>125.1087646</ele>
        <time>2011-04-19T12:40:24Z</time>
      </trkpt>
      <trkpt lat="43.61423" lon="6.94084">
        <ele>128.4733887</ele>
        <time>2011-04-19T12:40:40Z</time>
      </trkpt>
      <trkpt lat="43.61422" lon="6.94085">
        <ele>128.4733887</ele>
        <time>2011-04-19T12:40:41Z</time>
      </trkpt>
      <trkpt lat="43.61388" lon="6.94067">
        <ele>128.4733887</ele>
        <time>2011-04-19T12:40:54Z</time>
      </trkpt>
      <trkpt lat="43.61376" lon="6.9407">
        <ele>125.5893555</ele>
        <time>2011-04-19T12:40:58Z</time>
      </trkpt>
      <trkpt lat="43.61363" lon="6.94074">
        <ele>125.1087646</ele>
        <time>2011-04-19T12:41:01Z</time>
      </trkpt>
      <trkpt lat="43.61353" lon="6.94076">
        <ele>125.5893555</ele>
        <time>2011-04-19T12:41:05Z</time>
      </trkpt>
      <trkpt lat="43.61353" lon="6.94076">
        <ele>126.5506592</ele>
        <time>2011-04-19T12:41:09Z</time>
      </trkpt>
      <trkpt lat="43.61353" lon="6.94076">
        <ele>125.1087646</ele>
        <time>2011-04-19T12:41:11Z</time>
      </trkpt>
      <trkpt lat="43.61311" lon="6.94076">
        <ele>125.1087646</ele>
        <time>2011-04-19T12:41:14Z</time>
      </trkpt>
      <trkpt lat="43.61315" lon="6.94067">
        <ele>123.1861572</ele>
        <time>2011-04-19T12:41:16Z</time>
      </trkpt>
      <trkpt lat="43.6131" lon="6.94078">
        <ele>118.8601074</ele>
        <time>2011-04-19T12:41:22Z</time>
      </trkpt>
      <trkpt lat="43.6131" lon="6.94078">
        <ele>118.8601074</ele>
        <time>2011-04-19T12:41:23Z</time>
      </trkpt>
      <trkpt lat="43.61304" lon="6.94106">
        <ele>119.3408203</ele>
        <time>2011-04-19T12:41:25Z</time>
      </trkpt>
      <trkpt lat="43.61307" lon="6.94109">
        <ele>117.8988037</ele>
        <time>2011-04-19T12:41:27Z</time>
      </trkpt>
      <trkpt lat="43.61308" lon="6.94086">
        <ele>116.4567871</ele>
        <time>2011-04-19T12:41:32Z</time>
      </trkpt>
      <trkpt lat="43.61312" lon="6.94077">
        <ele>115.9761963</ele>
        <time>2011-04-19T12:41:34Z</time>
      </trkpt>
      <trkpt lat="43.61315" lon="6.94067">
        <ele>116.4567871</ele>
        <time>2011-04-19T12:41:36Z</time>
      </trkpt>
      <trkpt lat="43.61327" lon="6.94046">
        <ele>113.572998</ele>
        <time>2011-04-19T12:41:40Z</time>
      </trkpt>
      <trkpt lat="43.61339" lon="6.94033">
        <ele>110.6888428</ele>
        <time>2011-04-19T12:41:43Z</time>
      </trkpt>
      <trkpt lat="43.61343" lon="6.94028">
        <ele>110.6888428</ele>
        <time>2011-04-19T12:41:44Z</time>
      </trkpt>
      <trkpt lat="43.61355" lon="6.94014">
        <ele>107.8050537</ele>
        <time>2011-04-19T12:41:48Z</time>
      </trkpt>
      <trkpt lat="43.61366" lon="6.94001">
        <ele>104.9210205</ele>
        <time>2011-04-19T12:41:52Z</time>
      </trkpt>
      <trkpt lat="43.61366" lon="6.94001">
        <ele>104.9210205</ele>
        <time>2011-04-19T12:41:53Z</time>
      </trkpt>
      <trkpt lat="43.61366" lon="6.94001">
        <ele>104.4404297</ele>
        <time>2011-04-19T12:41:56Z</time>
      </trkpt>
      <trkpt lat="43.61366" lon="6.94001">
        <ele>102.998291</ele>
        <time>2011-04-19T12:41:59Z</time>
      </trkpt>
      <trkpt lat="43.61366" lon="6.94001">
        <ele>100.5950928</ele>
        <time>2011-04-19T12:42:04Z</time>
      </trkpt>
      <trkpt lat="43.61366" lon="6.94001">
        <ele>100.5950928</ele>
        <time>2011-04-19T12:42:05Z</time>
      </trkpt>
      <trkpt lat="43.61409" lon="6.93933">
        <ele>98.6724854</ele>
        <time>2011-04-19T12:42:09Z</time>
      </trkpt>
      <trkpt lat="43.61409" lon="6.93933">
        <ele>97.2304688</ele>
        <time>2011-04-19T12:42:11Z</time>
      </trkpt>
      <trkpt lat="43.61405" lon="6.93928">
        <ele>94.8271484</ele>
        <time>2011-04-19T12:42:14Z</time>
      </trkpt>
      <trkpt lat="43.61392" lon="6.9392">
        <ele>93.3851318</ele>
        <time>2011-04-19T12:42:16Z</time>
      </trkpt>
      <trkpt lat="43.61392" lon="6.93902">
        <ele>89.0593262</ele>
        <time>2011-04-19T12:42:24Z</time>
      </trkpt>
      <trkpt lat="43.6137" lon="6.93909">
        <ele>87.6171875</ele>
        <time>2011-04-19T12:42:27Z</time>
      </trkpt>
      <trkpt lat="43.6137" lon="6.93909">
        <ele>85.6945801</ele>
        <time>2011-04-19T12:42:36Z</time>
      </trkpt>
      <trkpt lat="43.61358" lon="6.93905">
        <ele>81.8493652</ele>
        <time>2011-04-19T12:42:42Z</time>
      </trkpt>
      <trkpt lat="43.61358" lon="6.93905">
        <ele>81.3687744</ele>
        <time>2011-04-19T12:42:43Z</time>
      </trkpt>
      <trkpt lat="43.61358" lon="6.93905">
        <ele>82.810791</ele>
        <time>2011-04-19T12:42:48Z</time>
      </trkpt>
      <trkpt lat="43.61361" lon="6.93906">
        <ele>82.3300781</ele>
        <time>2011-04-19T12:42:51Z</time>
      </trkpt>
      <trkpt lat="43.61363" lon="6.93906">
        <ele>83.7719727</ele>
        <time>2011-04-19T12:42:55Z</time>
      </trkpt>
      <trkpt lat="43.61363" lon="6.93906">
        <ele>82.810791</ele>
        <time>2011-04-19T12:42:58Z</time>
      </trkpt>
      <trkpt lat="43.61366" lon="6.93899">
        <ele>83.2913818</ele>
        <time>2011-04-19T12:43:08Z</time>
      </trkpt>
      <trkpt lat="43.61364" lon="6.939">
        <ele>80.4074707</ele>
        <time>2011-04-19T12:43:14Z</time>
      </trkpt>
      <trkpt lat="43.61345" lon="6.93912">
        <ele>77.5234375</ele>
        <time>2011-04-19T12:43:19Z</time>
      </trkpt>
      <trkpt lat="43.6134" lon="6.93915">
        <ele>75.6008301</ele>
        <time>2011-04-19T12:43:20Z</time>
      </trkpt>
      <trkpt lat="43.61323" lon="6.93923">
        <ele>76.5621338</ele>
        <time>2011-04-19T12:43:24Z</time>
      </trkpt>
      <trkpt lat="43.61302" lon="6.93935">
        <ele>74.1588135</ele>
        <time>2011-04-19T12:43:28Z</time>
      </trkpt>
      <trkpt lat="43.61296" lon="6.93938">
        <ele>71.7554932</ele>
        <time>2011-04-19T12:43:29Z</time>
      </trkpt>
      <trkpt lat="43.61278" lon="6.93947">
        <ele>70.7941895</ele>
        <time>2011-04-19T12:43:32Z</time>
      </trkpt>
      <trkpt lat="43.61257" lon="6.93946">
        <ele>71.2749023</ele>
        <time>2011-04-19T12:43:36Z</time>
      </trkpt>
      <trkpt lat="43.61237" lon="6.93948">
        <ele>70.3134766</ele>
        <time>2011-04-19T12:43:41Z</time>
      </trkpt>
      <trkpt lat="43.61233" lon="6.9395">
        <ele>69.8328857</ele>
        <time>2011-04-19T12:43:44Z</time>
      </trkpt>
      <trkpt lat="43.61193" lon="6.93948">
        <ele>66.9489746</ele>
        <time>2011-04-19T12:43:48Z</time>
      </trkpt>
      <trkpt lat="43.61179" lon="6.9395">
        <ele>67.4296875</ele>
        <time>2011-04-19T12:43:52Z</time>
      </trkpt>
      <trkpt lat="43.61161" lon="6.93951">
        <ele>66.4682617</ele>
        <time>2011-04-19T12:43:56Z</time>
      </trkpt>
      <trkpt lat="43.61156" lon="6.9395">
        <ele>66.9489746</ele>
        <time>2011-04-19T12:43:58Z</time>
      </trkpt>
      <trkpt lat="43.61154" lon="6.9395">
        <ele>69.3522949</ele>
        <time>2011-04-19T12:44:03Z</time>
      </trkpt>
      <trkpt lat="43.61154" lon="6.9395">
        <ele>70.7941895</ele>
        <time>2011-04-19T12:44:08Z</time>
      </trkpt>
      <trkpt lat="43.61113" lon="6.9393">
        <ele>70.3134766</ele>
        <time>2011-04-19T12:44:21Z</time>
      </trkpt>
      <trkpt lat="43.61087" lon="6.93926">
        <ele>69.8328857</ele>
        <time>2011-04-19T12:44:28Z</time>
      </trkpt>
      <trkpt lat="43.61065" lon="6.9392">
        <ele>67.9102783</ele>
        <time>2011-04-19T12:44:33Z</time>
      </trkpt>
      <trkpt lat="43.61058" lon="6.93921">
        <ele>67.9102783</ele>
        <time>2011-04-19T12:44:35Z</time>
      </trkpt>
      <trkpt lat="43.61042" lon="6.93924">
        <ele>65.5070801</ele>
        <time>2011-04-19T12:44:39Z</time>
      </trkpt>
      <trkpt lat="43.61007" lon="6.93929">
        <ele>63.5843506</ele>
        <time>2011-04-19T12:44:47Z</time>
      </trkpt>
      <trkpt lat="43.61005" lon="6.9395">
        <ele>61.1810303</ele>
        <time>2011-04-19T12:44:51Z</time>
      </trkpt>
      <trkpt lat="43.61008" lon="6.93963">
        <ele>60.7003174</ele>
        <time>2011-04-19T12:44:53Z</time>
      </trkpt>
      <trkpt lat="43.61011" lon="6.93976">
        <ele>60.2197266</ele>
        <time>2011-04-19T12:44:55Z</time>
      </trkpt>
      <trkpt lat="43.61014" lon="6.93986">
        <ele>56.8551025</ele>
        <time>2011-04-19T12:45:00Z</time>
      </trkpt>
      <trkpt lat="43.61014" lon="6.93986">
        <ele>56.8551025</ele>
        <time>2011-04-19T12:45:01Z</time>
      </trkpt>
      <trkpt lat="43.61002" lon="6.94045">
        <ele>54.4517822</ele>
        <time>2011-04-19T12:45:05Z</time>
      </trkpt>
      <trkpt lat="43.60976" lon="6.94051">
        <ele>51.0871582</ele>
        <time>2011-04-19T12:45:10Z</time>
      </trkpt>
      <trkpt lat="43.60909" lon="6.94011">
        <ele>50.1259766</ele>
        <time>2011-04-19T12:45:24Z</time>
      </trkpt>
      <trkpt lat="43.60894" lon="6.94003">
        <ele>50.1259766</ele>
        <time>2011-04-19T12:45:27Z</time>
      </trkpt>
      <trkpt lat="43.60884" lon="6.93998">
        <ele>50.6065674</ele>
        <time>2011-04-19T12:45:29Z</time>
      </trkpt>
      <trkpt lat="43.60869" lon="6.93985">
        <ele>51.0871582</ele>
        <time>2011-04-19T12:45:33Z</time>
      </trkpt>
      <trkpt lat="43.60859" lon="6.9396">
        <ele>51.0871582</ele>
        <time>2011-04-19T12:45:39Z</time>
      </trkpt>
      <trkpt lat="43.60841" lon="6.93965">
        <ele>50.6065674</ele>
        <time>2011-04-19T12:45:47Z</time>
      </trkpt>
      <trkpt lat="43.60814" lon="6.94058">
        <ele>51.0871582</ele>
        <time>2011-04-19T12:46:07Z</time>
      </trkpt>
      <trkpt lat="43.60808" lon="6.94118">
        <ele>56.75</ele>
      </trkpt>
      <trkpt lat="43.60808" lon="6.94192">
        <ele>60.0078125</ele>
      </trkpt>
      <trkpt lat="43.60799" lon="6.94175">
        <ele>60.3359375</ele>
      </trkpt>
      <trkpt lat="43.60798" lon="6.9417">
        <ele>57.8165283</ele>
        <time>2011-04-19T12:47:13Z</time>
      </trkpt>
      <trkpt lat="43.60789" lon="6.9413">
        <ele>61.6617432</ele>
        <time>2011-04-19T12:47:36Z</time>
      </trkpt>
      <trkpt lat="43.60785" lon="6.94117">
        <ele>63.1036377</ele>
        <time>2011-04-19T12:47:44Z</time>
      </trkpt>
      <trkpt lat="43.6077" lon="6.94077">
        <ele>67.9102783</ele>
        <time>2011-04-19T12:48:06Z</time>
      </trkpt>
      <trkpt lat="43.60769" lon="6.94073">
        <ele>67.9102783</ele>
        <time>2011-04-19T12:48:08Z</time>
      </trkpt>
      <trkpt lat="43.60768" lon="6.94068">
        <ele>68.3908691</ele>
        <time>2011-04-19T12:48:11Z</time>
      </trkpt>
      <trkpt lat="43.60765" lon="6.94054">
        <ele>69.3522949</ele>
        <time>2011-04-19T12:48:18Z</time>
      </trkpt>
      <trkpt lat="43.60761" lon="6.94009">
        <ele>72.7169189</ele>
        <time>2011-04-19T12:48:40Z</time>
      </trkpt>
      <trkpt lat="43.60751" lon="6.93979">
        <ele>76.0814209</ele>
        <time>2011-04-19T12:48:57Z</time>
      </trkpt>
      <trkpt lat="43.60743" lon="6.93943">
        <ele>78.0040283</ele>
        <time>2011-04-19T12:49:13Z</time>
      </trkpt>
      <trkpt lat="43.60728" lon="6.93913">
        <ele>81.8493652</ele>
        <time>2011-04-19T12:49:32Z</time>
      </trkpt>
      <trkpt lat="43.60703" lon="6.93892">
        <ele>84.7333984</ele>
        <time>2011-04-19T12:49:51Z</time>
      </trkpt>
      <trkpt lat="43.60676" lon="6.93873">
        <ele>88.5787354</ele>
        <time>2011-04-19T12:50:11Z</time>
      </trkpt>
      <trkpt lat="43.60675" lon="6.93872">
        <ele>88.5787354</ele>
        <time>2011-04-19T12:50:12Z</time>
      </trkpt>
      <trkpt lat="43.60668" lon="6.93871">
        <ele>90.0206299</ele>
        <time>2011-04-19T12:50:17Z</time>
      </trkpt>
      <trkpt lat="43.6064" lon="6.93879">
        <ele>93.3851318</ele>
        <time>2011-04-19T12:50:38Z</time>
      </trkpt>
      <trkpt lat="43.60633" lon="6.93882">
        <ele>93.8658447</ele>
        <time>2011-04-19T12:50:43Z</time>
      </trkpt>
      <trkpt lat="43.60606" lon="6.93891">
        <ele>97.2304688</ele>
        <time>2011-04-19T12:51:03Z</time>
      </trkpt>
      <trkpt lat="43.60583" lon="6.93895">
        <ele>100.114502</ele>
        <time>2011-04-19T12:51:19Z</time>
      </trkpt>
      <trkpt lat="43.60559" lon="6.93927">
        <ele>102.5177002</ele>
        <time>2011-04-19T12:51:41Z</time>
      </trkpt>
      <trkpt lat="43.60547" lon="6.93948">
        <ele>105.4017334</ele>
        <time>2011-04-19T12:51:55Z</time>
      </trkpt>
      <trkpt lat="43.60524" lon="6.93979">
        <ele>108.7662354</ele>
        <time>2011-04-19T12:52:16Z</time>
      </trkpt>
      <trkpt lat="43.60493" lon="6.94022">
        <ele>109.7276611</ele>
        <time>2011-04-19T12:52:39Z</time>
      </trkpt>
      <trkpt lat="43.60456" lon="6.94069">
        <ele>111.6502686</ele>
        <time>2011-04-19T12:52:59Z</time>
      </trkpt>
      <trkpt lat="43.60414" lon="6.94116">
        <ele>112.6115723</ele>
        <time>2011-04-19T12:53:21Z</time>
      </trkpt>
      <trkpt lat="43.60388" lon="6.94149">
        <ele>114.5341797</ele>
        <time>2011-04-19T12:53:37Z</time>
      </trkpt>
      <trkpt lat="43.60365" lon="6.94217">
        <ele>117.4182129</ele>
        <time>2011-04-19T12:54:01Z</time>
      </trkpt>
      <trkpt lat="43.60364" lon="6.9422">
        <ele>118.3793945</ele>
        <time>2011-04-19T12:54:02Z</time>
      </trkpt>
      <trkpt lat="43.60363" lon="6.94256">
        <ele>121.2635498</ele>
        <time>2011-04-19T12:54:14Z</time>
      </trkpt>
      <trkpt lat="43.60339" lon="6.94311">
        <ele>122.2247314</ele>
        <time>2011-04-19T12:54:32Z</time>
      </trkpt>
      <trkpt lat="43.60298" lon="6.94369">
        <ele>124.1473389</ele>
        <time>2011-04-19T12:54:53Z</time>
      </trkpt>
      <trkpt lat="43.6026" lon="6.94407">
        <ele>127.0313721</ele>
        <time>2011-04-19T12:55:12Z</time>
      </trkpt>
      <trkpt lat="43.60226" lon="6.94439">
        <ele>130.3959961</ele>
        <time>2011-04-19T12:55:31Z</time>
      </trkpt>
      <trkpt lat="43.60225" lon="6.94441">
        <ele>130.3959961</ele>
        <time>2011-04-19T12:55:32Z</time>
      </trkpt>
      <trkpt lat="43.60196" lon="6.94468">
        <ele>134.7219238</ele>
        <time>2011-04-19T12:55:50Z</time>
      </trkpt>
      <trkpt lat="43.60158" lon="6.94475">
        <ele>136.6446533</ele>
        <time>2011-04-19T12:56:09Z</time>
      </trkpt>
      <trkpt lat="43.60116" lon="6.94478">
        <ele>140.970459</ele>
        <time>2011-04-19T12:56:31Z</time>
      </trkpt>
      <trkpt lat="43.60085" lon="6.94483">
        <ele>143.8543701</ele>
        <time>2011-04-19T12:56:48Z</time>
      </trkpt>
      <trkpt lat="43.60071" lon="6.94484">
        <ele>144.3352051</ele>
        <time>2011-04-19T12:56:55Z</time>
      </trkpt>
      <trkpt lat="43.60049" lon="6.9448">
        <ele>145.7770996</ele>
        <time>2011-04-19T12:57:06Z</time>
      </trkpt>
      <trkpt lat="43.6003" lon="6.94478">
        <ele>145.2963867</ele>
        <time>2011-04-19T12:57:13Z</time>
      </trkpt>
      <trkpt lat="43.60029" lon="6.94478">
        <ele>142.4124756</ele>
        <time>2011-04-19T12:57:22Z</time>
      </trkpt>
      <trkpt lat="43.60029" lon="6.94478">
        <ele>140.970459</ele>
        <time>2011-04-19T12:57:27Z</time>
      </trkpt>
      <trkpt lat="43.59963" lon="6.94571">
        <ele>137.605835</ele>
        <time>2011-04-19T12:57:35Z</time>
      </trkpt>
      <trkpt lat="43.5997" lon="6.94615">
        <ele>136.1639404</ele>
        <time>2011-04-19T12:57:44Z</time>
      </trkpt>
      <trkpt lat="43.59975" lon="6.94623">
        <ele>136.1639404</ele>
        <time>2011-04-19T12:57:49Z</time>
      </trkpt>
      <trkpt lat="43.59963" lon="6.94629">
        <ele>135.2025146</ele>
        <time>2011-04-19T12:57:53Z</time>
      </trkpt>
      <trkpt lat="43.59964" lon="6.9464">
        <ele>134.2412109</ele>
        <time>2011-04-19T12:57:56Z</time>
      </trkpt>
      <trkpt lat="43.59963" lon="6.94645">
        <ele>134.2412109</ele>
        <time>2011-04-19T12:57:58Z</time>
      </trkpt>
      <trkpt lat="43.59967" lon="6.94666">
        <ele>134.2412109</ele>
        <time>2011-04-19T12:58:04Z</time>
      </trkpt>
      <trkpt lat="43.59983" lon="6.94715">
        <ele>133.760498</ele>
        <time>2011-04-19T12:58:16Z</time>
      </trkpt>
      <trkpt lat="43.59983" lon="6.9472">
        <ele>133.760498</ele>
        <time>2011-04-19T12:58:17Z</time>
      </trkpt>
      <trkpt lat="43.5998" lon="6.94741">
        <ele>132.7993164</ele>
        <time>2011-04-19T12:58:21Z</time>
      </trkpt>
      <trkpt lat="43.59984" lon="6.94756">
        <ele>133.2799072</ele>
        <time>2011-04-19T12:58:25Z</time>
      </trkpt>
      <trkpt lat="43.59986" lon="6.94764">
        <ele>133.2799072</ele>
        <time>2011-04-19T12:58:27Z</time>
      </trkpt>
      <trkpt lat="43.60003" lon="6.94804">
        <ele>133.2799072</ele>
        <time>2011-04-19T12:58:38Z</time>
      </trkpt>
      <trkpt lat="43.59994" lon="6.9481">
        <ele>133.2799072</ele>
        <time>2011-04-19T12:58:44Z</time>
      </trkpt>
      <trkpt lat="43.59982" lon="6.94796">
        <ele>132.7993164</ele>
        <time>2011-04-19T12:58:48Z</time>
      </trkpt>
      <trkpt lat="43.59911" lon="6.94733">
        <ele>130.876709</ele>
        <time>2011-04-19T12:59:07Z</time>
      </trkpt>
      <trkpt lat="43.59899" lon="6.94723">
        <ele>129.9152832</ele>
        <time>2011-04-19T12:59:10Z</time>
      </trkpt>
      <trkpt lat="43.59858" lon="6.94694">
        <ele>128.9541016</ele>
        <time>2011-04-19T12:59:20Z</time>
      </trkpt>
      <trkpt lat="43.59844" lon="6.94663">
        <ele>130.3959961</ele>
        <time>2011-04-19T12:59:32Z</time>
      </trkpt>
      <trkpt lat="43.59813" lon="6.94638">
        <ele>130.3959961</ele>
        <time>2011-04-19T12:59:47Z</time>
      </trkpt>
      <trkpt lat="43.59809" lon="6.94635">
        <ele>130.876709</ele>
        <time>2011-04-19T12:59:49Z</time>
      </trkpt>
      <trkpt lat="43.59798" lon="6.94627">
        <ele>131.8378906</ele>
        <time>2011-04-19T12:59:54Z</time>
      </trkpt>
      <trkpt lat="43.59783" lon="6.94603">
        <ele>132.7993164</ele>
        <time>2011-04-19T13:00:04Z</time>
      </trkpt>
      <trkpt lat="43.5977" lon="6.94593">
        <ele>134.7219238</ele>
        <time>2011-04-19T13:00:13Z</time>
      </trkpt>
      <trkpt lat="43.59749" lon="6.94573">
        <ele>136.6446533</ele>
        <time>2011-04-19T13:00:25Z</time>
      </trkpt>
      <trkpt lat="43.59749" lon="6.94573">
        <ele>137.1252441</ele>
        <time>2011-04-19T13:00:26Z</time>
      </trkpt>
      <trkpt lat="43.59739" lon="6.94568">
        <ele>138.0865479</ele>
        <time>2011-04-19T13:00:30Z</time>
      </trkpt>
      <trkpt lat="43.59733" lon="6.94562">
        <ele>138.5672607</ele>
        <time>2011-04-19T13:00:34Z</time>
      </trkpt>
      <trkpt lat="43.59742" lon="6.9455">
        <ele>140.0091553</ele>
        <time>2011-04-19T13:00:40Z</time>
      </trkpt>
      <trkpt lat="43.59746" lon="6.94549">
        <ele>140.0091553</ele>
        <time>2011-04-19T13:00:43Z</time>
      </trkpt>
      <trkpt lat="43.59748" lon="6.94548">
        <ele>140.970459</ele>
        <time>2011-04-19T13:00:45Z</time>
      </trkpt>
      <trkpt lat="43.59769" lon="6.9453">
        <ele>143.8543701</ele>
        <time>2011-04-19T13:01:04Z</time>
      </trkpt>
      <trkpt lat="43.59774" lon="6.94514">
        <ele>145.2963867</ele>
        <time>2011-04-19T13:01:15Z</time>
      </trkpt>
      <trkpt lat="43.59772" lon="6.9451">
        <ele>145.2963867</ele>
        <time>2011-04-19T13:01:19Z</time>
      </trkpt>
      <trkpt lat="43.59764" lon="6.94511">
        <ele>145.7770996</ele>
        <time>2011-04-19T13:01:25Z</time>
      </trkpt>
      <trkpt lat="43.59749" lon="6.94509">
        <ele>148.1804199</ele>
        <time>2011-04-19T13:01:35Z</time>
      </trkpt>
      <trkpt lat="43.59737" lon="6.94504">
        <ele>149.1416016</ele>
        <time>2011-04-19T13:01:44Z</time>
      </trkpt>
      <trkpt lat="43.59721" lon="6.94499">
        <ele>151.064209</ele>
        <time>2011-04-19T13:01:55Z</time>
      </trkpt>
      <trkpt lat="43.59714" lon="6.94489">
        <ele>152.5063477</ele>
        <time>2011-04-19T13:02:02Z</time>
      </trkpt>
      <trkpt lat="43.59716" lon="6.94477">
        <ele>153.4676514</ele>
        <time>2011-04-19T13:02:08Z</time>
      </trkpt>
      <trkpt lat="43.59711" lon="6.94435">
        <ele>156.8321533</ele>
        <time>2011-04-19T13:02:29Z</time>
      </trkpt>
      <trkpt lat="43.59695" lon="6.94402">
        <ele>158.7547607</ele>
        <time>2011-04-19T13:02:47Z</time>
      </trkpt>
      <trkpt lat="43.59662" lon="6.9439">
        <ele>160.6774902</ele>
        <time>2011-04-19T13:03:04Z</time>
      </trkpt>
      <trkpt lat="43.59636" lon="6.94391">
        <ele>159.7161865</ele>
        <time>2011-04-19T13:03:12Z</time>
      </trkpt>
      <trkpt lat="43.59626" lon="6.94392">
        <ele>159.2354736</ele>
        <time>2011-04-19T13:03:15Z</time>
      </trkpt>
      <trkpt lat="43.59613" lon="6.94385">
        <ele>158.2741699</ele>
        <time>2011-04-19T13:03:29Z</time>
      </trkpt>
      <trkpt lat="43.59613" lon="6.94385">
        <ele>155.8709717</ele>
        <time>2011-04-19T13:03:47Z</time>
      </trkpt>
      <trkpt lat="43.59613" lon="6.94385">
        <ele>153.4676514</ele>
        <time>2011-04-19T13:03:50Z</time>
      </trkpt>
      <trkpt lat="43.59613" lon="6.94385">
        <ele>151.064209</ele>
        <time>2011-04-19T13:03:55Z</time>
      </trkpt>
      <trkpt lat="43.59555" lon="6.94349">
        <ele>150.1030273</ele>
        <time>2011-04-19T13:03:57Z</time>
      </trkpt>
      <trkpt lat="43.5955" lon="6.9435">
        <ele>147.699707</ele>
        <time>2011-04-19T13:04:01Z</time>
      </trkpt>
      <trkpt lat="43.59536" lon="6.94357">
        <ele>147.2189941</ele>
        <time>2011-04-19T13:04:04Z</time>
      </trkpt>
      <trkpt lat="43.59523" lon="6.94373">
        <ele>144.3352051</ele>
        <time>2011-04-19T13:04:10Z</time>
      </trkpt>
      <trkpt lat="43.59521" lon="6.94377">
        <ele>143.3736572</ele>
        <time>2011-04-19T13:04:12Z</time>
      </trkpt>
      <trkpt lat="43.59505" lon="6.94381">
        <ele>140.4898682</ele>
        <time>2011-04-19T13:04:17Z</time>
      </trkpt>
      <trkpt lat="43.59482" lon="6.94385">
        <ele>139.0478516</ele>
        <time>2011-04-19T13:04:23Z</time>
      </trkpt>
      <trkpt lat="43.59469" lon="6.9439">
        <ele>138.5672607</ele>
        <time>2011-04-19T13:04:27Z</time>
      </trkpt>
      <trkpt lat="43.59454" lon="6.94352">
        <ele>137.605835</ele>
        <time>2011-04-19T13:04:31Z</time>
      </trkpt>
      <trkpt lat="43.59456" lon="6.94343">
        <ele>135.2025146</ele>
        <time>2011-04-19T13:04:33Z</time>
      </trkpt>
      <trkpt lat="43.59459" lon="6.94326">
        <ele>131.8378906</ele>
        <time>2011-04-19T13:04:36Z</time>
      </trkpt>
      <trkpt lat="43.59461" lon="6.94322">
        <ele>131.8378906</ele>
        <time>2011-04-19T13:04:37Z</time>
      </trkpt>
      <trkpt lat="43.59461" lon="6.94315">
        <ele>127.9925537</ele>
        <time>2011-04-19T13:04:39Z</time>
      </trkpt>
      <trkpt lat="43.5946" lon="6.94311">
        <ele>127.9925537</ele>
        <time>2011-04-19T13:04:40Z</time>
      </trkpt>
      <trkpt lat="43.59456" lon="6.94297">
        <ele>125.1087646</ele>
        <time>2011-04-19T13:04:42Z</time>
      </trkpt>
      <trkpt lat="43.59452" lon="6.94281">
        <ele>122.7054443</ele>
        <time>2011-04-19T13:04:44Z</time>
      </trkpt>
      <trkpt lat="43.59444" lon="6.94258">
        <ele>120.7828369</ele>
        <time>2011-04-19T13:04:47Z</time>
      </trkpt>
      <trkpt lat="43.59423" lon="6.94209">
        <ele>120.7828369</ele>
        <time>2011-04-19T13:04:54Z</time>
      </trkpt>
      <trkpt lat="43.5942" lon="6.942">
        <ele>119.3408203</ele>
        <time>2011-04-19T13:04:56Z</time>
      </trkpt>
      <trkpt lat="43.59416" lon="6.94193">
        <ele>119.8214111</ele>
        <time>2011-04-19T13:04:58Z</time>
      </trkpt>
      <trkpt lat="43.59412" lon="6.94187">
        <ele>116.9375</ele>
        <time>2011-04-19T13:05:01Z</time>
      </trkpt>
      <trkpt lat="43.59405" lon="6.94179">
        <ele>115.9761963</ele>
        <time>2011-04-19T13:05:03Z</time>
      </trkpt>
      <trkpt lat="43.59387" lon="6.94167">
        <ele>112.6115723</ele>
        <time>2011-04-19T13:05:10Z</time>
      </trkpt>
      <trkpt lat="43.59386" lon="6.94116">
        <ele>110.6888428</ele>
        <time>2011-04-19T13:05:14Z</time>
      </trkpt>
      <trkpt lat="43.59383" lon="6.941">
        <ele>108.7662354</ele>
        <time>2011-04-19T13:05:16Z</time>
      </trkpt>
      <trkpt lat="43.59378" lon="6.94081">
        <ele>106.3630371</ele>
        <time>2011-04-19T13:05:19Z</time>
      </trkpt>
      <trkpt lat="43.59375" lon="6.9407">
        <ele>105.8824463</ele>
        <time>2011-04-19T13:05:21Z</time>
      </trkpt>
      <trkpt lat="43.59372" lon="6.94051">
        <ele>102.998291</ele>
        <time>2011-04-19T13:05:24Z</time>
      </trkpt>
      <trkpt lat="43.5937" lon="6.94034">
        <ele>101.5563965</ele>
        <time>2011-04-19T13:05:26Z</time>
      </trkpt>
      <trkpt lat="43.59367" lon="6.94002">
        <ele>97.2304688</ele>
        <time>2011-04-19T13:05:30Z</time>
      </trkpt>
      <trkpt lat="43.59366" lon="6.93994">
        <ele>97.2304688</ele>
        <time>2011-04-19T13:05:31Z</time>
      </trkpt>
      <trkpt lat="43.59366" lon="6.93979">
        <ele>95.7884521</ele>
        <time>2011-04-19T13:05:33Z</time>
      </trkpt>
      <trkpt lat="43.59366" lon="6.93972">
        <ele>94.3465576</ele>
        <time>2011-04-19T13:05:34Z</time>
      </trkpt>
      <trkpt lat="43.59359" lon="6.93952">
        <ele>90.9819336</ele>
        <time>2011-04-19T13:05:37Z</time>
      </trkpt>
      <trkpt lat="43.59356" lon="6.93945">
        <ele>90.9819336</ele>
        <time>2011-04-19T13:05:38Z</time>
      </trkpt>
      <trkpt lat="43.59342" lon="6.93938">
        <ele>88.5787354</ele>
        <time>2011-04-19T13:05:42Z</time>
      </trkpt>
      <trkpt lat="43.59354" lon="6.93921">
        <ele>86.175293</ele>
        <time>2011-04-19T13:05:47Z</time>
      </trkpt>
      <trkpt lat="43.5937" lon="6.93925">
        <ele>83.7719727</ele>
        <time>2011-04-19T13:05:51Z</time>
      </trkpt>
      <trkpt lat="43.59374" lon="6.93928">
        <ele>81.8493652</ele>
        <time>2011-04-19T13:05:52Z</time>
      </trkpt>
      <trkpt lat="43.59382" lon="6.93935">
        <ele>80.4074707</ele>
        <time>2011-04-19T13:05:54Z</time>
      </trkpt>
      <trkpt lat="43.59389" lon="6.9394">
        <ele>78.4847412</ele>
        <time>2011-04-19T13:05:56Z</time>
      </trkpt>
      <trkpt lat="43.59395" lon="6.93949">
        <ele>77.5234375</ele>
        <time>2011-04-19T13:05:58Z</time>
      </trkpt>
      <trkpt lat="43.59401" lon="6.9396">
        <ele>76.0814209</ele>
        <time>2011-04-19T13:06:00Z</time>
      </trkpt>
      <trkpt lat="43.59408" lon="6.93975">
        <ele>75.1202393</ele>
        <time>2011-04-19T13:06:04Z</time>
      </trkpt>
      <trkpt lat="43.5941" lon="6.93961">
        <ele>71.7554932</ele>
        <time>2011-04-19T13:06:09Z</time>
      </trkpt>
      <trkpt lat="43.59408" lon="6.93939">
        <ele>69.8328857</ele>
        <time>2011-04-19T13:06:12Z</time>
      </trkpt>
      <trkpt lat="43.59403" lon="6.93918">
        <ele>67.4296875</ele>
        <time>2011-04-19T13:06:15Z</time>
      </trkpt>
      <trkpt lat="43.59399" lon="6.93912">
        <ele>65.9876709</ele>
        <time>2011-04-19T13:06:16Z</time>
      </trkpt>
      <trkpt lat="43.59386" lon="6.93893">
        <ele>66.4682617</ele>
        <time>2011-04-19T13:06:19Z</time>
      </trkpt>
      <trkpt lat="43.59377" lon="6.93874">
        <ele>65.0263672</ele>
        <time>2011-04-19T13:06:22Z</time>
      </trkpt>
      <trkpt lat="43.59383" lon="6.93856">
        <ele>62.142334</ele>
        <time>2011-04-19T13:06:24Z</time>
      </trkpt>
      <trkpt lat="43.59388" lon="6.93848">
        <ele>57.8165283</ele>
        <time>2011-04-19T13:06:25Z</time>
      </trkpt>
      <trkpt lat="43.59399" lon="6.93828">
        <ele>54.4517822</ele>
        <time>2011-04-19T13:06:27Z</time>
      </trkpt>
      <trkpt lat="43.59409" lon="6.93807">
        <ele>52.048584</ele>
        <time>2011-04-19T13:06:29Z</time>
      </trkpt>
      <trkpt lat="43.59419" lon="6.93781">
        <ele>54.9648438</ele>
      </trkpt>
      <trkpt lat="43.59363" lon="6.93751">
        <ele>54.7304688</ele>
      </trkpt>
      <trkpt lat="43.59358" lon="6.93702">
        <ele>51.953125</ele>
      </trkpt>
      <trkpt lat="43.59359" lon="6.93676">
        <ele>51.578125</ele>
      </trkpt>
      <trkpt lat="43.59373" lon="6.93647">
        <ele>52.578125</ele>
      </trkpt>
      <trkpt lat="43.59374" lon="6.93647">
        <ele>47.7225342</ele>
        <time>2011-04-19T13:08:25Z</time>
      </trkpt>
      <trkpt lat="43.59389" lon="6.93615">
        <ele>45.7999268</ele>
        <time>2011-04-19T13:08:32Z</time>
      </trkpt>
      <trkpt lat="43.59378" lon="6.936">
        <ele>44.838623</ele>
        <time>2011-04-19T13:08:37Z</time>
      </trkpt>
      <trkpt lat="43.59376" lon="6.93557">
        <ele>41.473999</ele>
        <time>2011-04-19T13:08:43Z</time>
      </trkpt>
      <trkpt lat="43.59381" lon="6.9353">
        <ele>39.0706787</ele>
        <time>2011-04-19T13:08:46Z</time>
      </trkpt>
      <trkpt lat="43.59389" lon="6.93492">
        <ele>36.1867676</ele>
        <time>2011-04-19T13:08:50Z</time>
      </trkpt>
      <trkpt lat="43.59394" lon="6.93474">
        <ele>32.8222656</ele>
        <time>2011-04-19T13:08:52Z</time>
      </trkpt>
      <trkpt lat="43.59397" lon="6.93465">
        <ele>32.8222656</ele>
        <time>2011-04-19T13:08:53Z</time>
      </trkpt>
      <trkpt lat="43.59401" lon="6.93449">
        <ele>32.3415527</ele>
        <time>2011-04-19T13:08:55Z</time>
      </trkpt>
      <trkpt lat="43.59417" lon="6.93418">
        <ele>27.5349121</ele>
        <time>2011-04-19T13:08:59Z</time>
      </trkpt>
      <trkpt lat="43.59431" lon="6.9338">
        <ele>24.651001</ele>
        <time>2011-04-19T13:09:03Z</time>
      </trkpt>
      <trkpt lat="43.59442" lon="6.93349">
        <ele>22.2475586</ele>
        <time>2011-04-19T13:09:07Z</time>
      </trkpt>
      <trkpt lat="43.59439" lon="6.93317">
        <ele>20.3249512</ele>
        <time>2011-04-19T13:09:11Z</time>
      </trkpt>
      <trkpt lat="43.59433" lon="6.93289">
        <ele>16.9604492</ele>
        <time>2011-04-19T13:09:14Z</time>
      </trkpt>
      <trkpt lat="43.59423" lon="6.93273">
        <ele>15.5184326</ele>
        <time>2011-04-19T13:09:17Z</time>
      </trkpt>
      <trkpt lat="43.59422" lon="6.93242">
        <ele>15.5184326</ele>
        <time>2011-04-19T13:09:22Z</time>
      </trkpt>
      <trkpt lat="43.59455" lon="6.93206">
        <ele>14.5570068</ele>
        <time>2011-04-19T13:09:30Z</time>
      </trkpt>
      <trkpt lat="43.59452" lon="6.93184">
        <ele>15.0377197</ele>
        <time>2011-04-19T13:09:35Z</time>
      </trkpt>
      <trkpt lat="43.59429" lon="6.93149">
        <ele>14.076416</ele>
        <time>2011-04-19T13:09:41Z</time>
      </trkpt>
      <trkpt lat="43.59377" lon="6.93065">
        <ele>15.0377197</ele>
        <time>2011-04-19T13:09:57Z</time>
      </trkpt>
      <trkpt lat="43.59376" lon="6.93063">
        <ele>15.0377197</ele>
        <time>2011-04-19T13:10:10Z</time>
      </trkpt>
      <trkpt lat="43.59376" lon="6.93063">
        <ele>15.0377197</ele>
        <time>2011-04-19T13:10:18Z</time>
      </trkpt>
      <trkpt lat="43.59392" lon="6.93022">
        <ele>15.0377197</ele>
        <time>2011-04-19T13:10:32Z</time>
      </trkpt>
      <trkpt lat="43.59392" lon="6.93018">
        <ele>13.5958252</ele>
        <time>2011-04-19T13:10:35Z</time>
      </trkpt>
      <trkpt lat="43.59386" lon="6.93012">
        <ele>14.076416</ele>
        <time>2011-04-19T13:10:37Z</time>
      </trkpt>
      <trkpt lat="43.59348" lon="6.92976">
        <ele>15.5184326</ele>
        <time>2011-04-19T13:10:55Z</time>
      </trkpt>
      <trkpt lat="43.59348" lon="6.92976">
        <ele>15.5184326</ele>
        <time>2011-04-19T13:11:02Z</time>
      </trkpt>
      <trkpt lat="43.59342" lon="6.9297">
        <ele>15.0377197</ele>
        <time>2011-04-19T13:11:07Z</time>
      </trkpt>
      <trkpt lat="43.59337" lon="6.92965">
        <ele>15.5184326</ele>
        <time>2011-04-19T13:11:12Z</time>
      </trkpt>
      <trkpt lat="43.59328" lon="6.92963">
        <ele>15.5184326</ele>
        <time>2011-04-19T13:11:19Z</time>
      </trkpt>
      <trkpt lat="43.59315" lon="6.92986">
        <ele>15.5184326</ele>
        <time>2011-04-19T13:11:26Z</time>
      </trkpt>
      <trkpt lat="43.5929" lon="6.93011">
        <ele>14.076416</ele>
        <time>2011-04-19T13:11:34Z</time>
      </trkpt>
      <trkpt lat="43.59272" lon="6.93035">
        <ele>16.2851563</ele>
      </trkpt>
    </trkseg>
  </trk>
</gpx>